Time,TemperatureF,DewpointF,PressureIn,WindDirection,WindDirectionDegrees,WindSpeedMPH,WindSpeedGustMPH,Humidity,HourlyPrecipIn,Conditions,Clouds,dailyrainin,SoftwareType,DateUTC
2013-06-01 00:03:00,52.7,35.1,30.14,SE,127,0.0,4.0,51,0.00,,---,0.00,VWS V14.01,2013-06-01 08:03:00,
2013-06-01 00:08:00,52.2,34.6,30.14,SE,127,0.0,2.0,51,0.00,,---,0.00,VWS V14.01,2013-06-01 08:08:00,
2013-06-01 00:09:00,52.1,35.0,30.14,SE,127,0.0,2.0,52,0.00,,---,0.00,VWS V14.01,2013-06-01 08:09:00,
2013-06-01 00:13:00,51.3,34.8,30.14,ESE,116,2.0,4.0,53,0.00,,---,0.00,VWS V14.01,2013-06-01 08:13:00,
2013-06-01 00:14:00,51.1,34.6,30.14,ESE,115,2.0,4.0,53,0.00,,---,0.00,VWS V14.01,2013-06-01 08:14:00,
2013-06-01 00:15:00,50.8,34.8,30.14,East,88,0.0,6.0,54,0.00,,---,0.00,VWS V14.01,2013-06-01 08:15:00,
2013-06-01 00:18:00,50.2,35.1,30.14,East,96,4.0,4.0,56,0.00,,---,0.00,VWS V14.01,2013-06-01 08:18:00,
2013-06-01 00:19:00,50.1,34.6,30.14,ESE,107,4.0,4.0,55,0.00,,---,0.00,VWS V14.01,2013-06-01 08:19:00,
2013-06-01 00:20:00,49.8,34.8,30.14,ESE,113,0.0,5.0,56,0.00,,---,0.00,VWS V14.01,2013-06-01 08:20:00,
2013-06-01 00:23:00,49.1,34.5,30.14,ESE,113,0.0,2.0,57,0.00,,---,0.00,VWS V14.01,2013-06-01 08:23:00,
2013-06-01 00:24:00,49.1,34.5,30.14,ESE,113,0.0,2.0,57,0.00,,---,0.00,VWS V14.01,2013-06-01 08:24:00,
2013-06-01 00:25:00,48.8,34.7,30.14,ESE,121,4.0,4.0,58,0.00,,---,0.00,VWS V14.01,2013-06-01 08:25:00,
2013-06-01 00:29:00,48.5,34.4,30.14,ESE,121,1.0,5.0,58,0.00,,---,0.00,VWS V14.01,2013-06-01 08:29:00,
2013-06-01 00:30:00,48.5,34.4,30.14,ESE,121,0.0,5.0,58,0.00,,---,0.00,VWS V14.01,2013-06-01 08:30:00,
2013-06-01 00:31:00,48.4,34.8,30.14,ESE,121,0.0,5.0,59,0.00,,---,0.00,VWS V14.01,2013-06-01 08:31:00,
2013-06-01 00:34:00,48.1,34.5,30.14,ESE,121,0.0,5.0,59,0.00,,---,0.00,VWS V14.01,2013-06-01 08:34:00,
2013-06-01 00:35:00,48.1,34.5,30.14,ESE,121,0.0,5.0,59,0.00,,---,0.00,VWS V14.01,2013-06-01 08:35:00,
2013-06-01 00:36:00,48.1,34.5,30.14,ESE,121,0.0,5.0,59,0.00,,---,0.00,VWS V14.01,2013-06-01 08:36:00,
2013-06-01 00:39:00,47.9,34.3,30.14,ESE,121,0.0,0.0,59,0.00,,---,0.00,VWS V14.01,2013-06-01 08:39:00,
2013-06-01 00:40:00,47.9,34.3,30.14,ESE,121,0.0,0.0,59,0.00,,---,0.00,VWS V14.01,2013-06-01 08:40:00,
2013-06-01 00:41:00,47.8,34.6,30.14,ESE,121,0.0,0.0,60,0.00,,---,0.00,VWS V14.01,2013-06-01 08:41:00,
2013-06-01 00:44:00,47.5,33.9,30.14,NE,48,5.0,6.0,59,0.00,,---,0.00,VWS V14.01,2013-06-01 08:44:00,
2013-06-01 00:45:00,47.4,34.2,30.14,NNE,25,0.0,6.0,60,0.00,,---,0.00,VWS V14.01,2013-06-01 08:45:00,
2013-06-01 00:46:00,47.6,34.4,30.14,NNE,25,0.0,6.0,60,0.00,,---,0.00,VWS V14.01,2013-06-01 08:46:00,
2013-06-01 00:50:00,47.9,34.7,30.14,ENE,74,0.0,3.0,60,0.00,,---,0.00,VWS V14.01,2013-06-01 08:50:00,
2013-06-01 00:51:00,47.9,34.3,30.14,ENE,74,0.0,3.0,59,0.00,,---,0.00,VWS V14.01,2013-06-01 08:51:00,
2013-06-01 00:52:00,48.0,34.4,30.14,ENE,74,0.0,0.0,59,0.00,,---,0.00,VWS V14.01,2013-06-01 08:52:00,
2013-06-01 00:55:00,48.0,34.4,30.14,ENE,75,0.0,0.0,59,0.00,,---,0.00,VWS V14.01,2013-06-01 08:55:00,
2013-06-01 00:56:00,47.9,34.3,30.14,ENE,74,0.0,0.0,59,0.00,,---,0.00,VWS V14.01,2013-06-01 08:56:00,
2013-06-01 00:57:00,47.7,34.1,30.14,ENE,75,0.0,0.0,59,0.00,,---,0.00,VWS V14.01,2013-06-01 08:57:00,
2013-06-01 01:00:00,47.3,34.1,30.14,ENE,75,3.0,4.0,60,0.00,,---,0.00,VWS V14.01,2013-06-01 09:00:00,
2013-06-01 01:01:00,47.1,33.9,30.14,ENE,75,1.0,4.0,60,0.00,,---,0.00,VWS V14.01,2013-06-01 09:01:00,
2013-06-01 01:02:00,47.0,33.8,30.14,ENE,75,0.0,1.0,60,0.00,,---,0.00,VWS V14.01,2013-06-01 09:02:00,
2013-06-01 01:05:00,46.4,33.7,30.15,ENE,75,0.0,1.0,61,0.00,,---,0.00,VWS V14.01,2013-06-01 09:05:00,
2013-06-01 01:07:00,46.2,33.9,30.14,ENE,75,0.0,0.0,62,0.00,,---,0.00,VWS V14.01,2013-06-01 09:07:00,
2013-06-01 01:10:00,45.9,33.6,30.15,ENE,75,0.0,0.0,62,0.00,,---,0.00,VWS V14.01,2013-06-01 09:10:00,
2013-06-01 01:11:00,45.8,33.5,30.15,ENE,75,0.0,0.0,62,0.00,,---,0.00,VWS V14.01,2013-06-01 09:11:00,
2013-06-01 01:12:00,45.8,33.5,30.15,ENE,75,0.0,0.0,62,0.00,,---,0.00,VWS V14.01,2013-06-01 09:12:00,
2013-06-01 01:13:00,45.8,33.9,30.15,ENE,75,0.0,0.0,63,0.00,,---,0.00,VWS V14.01,2013-06-01 09:13:00,
2013-06-01 01:15:00,45.7,33.8,30.15,ENE,75,0.0,0.0,63,0.00,,---,0.00,VWS V14.01,2013-06-01 09:15:00,
2013-06-01 01:16:00,45.6,33.8,30.15,ENE,75,0.0,0.0,63,0.00,,---,0.00,VWS V14.01,2013-06-01 09:16:00,
2013-06-01 01:18:00,45.5,33.7,30.15,ENE,75,0.0,0.0,63,0.00,,---,0.00,VWS V14.01,2013-06-01 09:18:00,
2013-06-01 01:20:00,45.1,33.3,30.15,ENE,75,0.0,0.0,63,0.00,,---,0.00,VWS V14.01,2013-06-01 09:20:00,
2013-06-01 01:22:00,44.9,33.1,30.15,ENE,75,0.0,0.0,63,0.00,,---,0.00,VWS V14.01,2013-06-01 09:22:00,
2013-06-01 01:23:00,44.7,33.3,30.15,ENE,75,0.0,0.0,64,0.00,,---,0.00,VWS V14.01,2013-06-01 09:23:00,
2013-06-01 01:25:00,44.3,32.9,30.15,ENE,75,0.0,0.0,64,0.00,,---,0.00,VWS V14.01,2013-06-01 09:25:00,
2013-06-01 01:27:00,44.1,32.7,30.15,ENE,75,0.0,0.0,64,0.00,,---,0.00,VWS V14.01,2013-06-01 09:27:00,
2013-06-01 01:28:00,43.8,32.4,30.15,ENE,75,0.0,0.0,64,0.00,,---,0.00,VWS V14.01,2013-06-01 09:28:00,
2013-06-01 01:31:00,43.3,32.3,30.15,ENE,75,0.0,0.0,65,0.00,,---,0.00,VWS V14.01,2013-06-01 09:31:00,
2013-06-01 01:32:00,43.2,32.2,30.15,ENE,75,0.0,0.0,65,0.00,,---,0.00,VWS V14.01,2013-06-01 09:32:00,
2013-06-01 01:33:00,42.9,32.3,30.15,ENE,75,0.0,0.0,66,0.00,,---,0.00,VWS V14.01,2013-06-01 09:33:00,
2013-06-01 01:36:00,42.4,32.2,30.15,ENE,75,0.0,0.0,67,0.00,,---,0.00,VWS V14.01,2013-06-01 09:36:00,
2013-06-01 01:37:00,42.4,32.2,30.15,ENE,75,0.0,0.0,67,0.00,,---,0.00,VWS V14.01,2013-06-01 09:37:00,
2013-06-01 01:38:00,42.2,32.4,30.15,ENE,75,0.0,0.0,68,0.00,,---,0.00,VWS V14.01,2013-06-01 09:38:00,
2013-06-01 01:39:00,42.2,32.4,30.15,ENE,75,0.0,0.0,68,0.00,,---,0.00,VWS V14.01,2013-06-01 09:39:00,
2013-06-01 01:42:00,42.0,32.6,30.15,ENE,75,0.0,0.0,69,0.00,,---,0.00,VWS V14.01,2013-06-01 09:42:00,
2013-06-01 01:43:00,41.8,32.4,30.15,ENE,75,0.0,0.0,69,0.00,,---,0.00,VWS V14.01,2013-06-01 09:43:00,
2013-06-01 01:44:00,41.8,32.4,30.15,ENE,75,0.0,0.0,69,0.00,,---,0.00,VWS V14.01,2013-06-01 09:44:00,
2013-06-01 01:47:00,41.3,32.3,30.15,ENE,75,0.0,0.0,70,0.00,,---,0.00,VWS V14.01,2013-06-01 09:47:00,
2013-06-01 01:48:00,41.3,32.6,30.15,ENE,75,0.0,0.0,71,0.00,,---,0.00,VWS V14.01,2013-06-01 09:48:00,
2013-06-01 01:49:00,41.2,32.5,30.15,ENE,75,0.0,0.0,71,0.00,,---,0.00,VWS V14.01,2013-06-01 09:49:00,
2013-06-01 01:50:00,41.2,32.5,30.15,ENE,75,0.0,0.0,71,0.00,,---,0.00,VWS V14.01,2013-06-01 09:50:00,
2013-06-01 01:52:00,41.1,32.8,30.15,ENE,75,0.0,0.0,72,0.00,,---,0.00,VWS V14.01,2013-06-01 09:52:00,
2013-06-01 01:53:00,41.0,32.7,30.15,ENE,75,0.0,0.0,72,0.00,,---,0.00,VWS V14.01,2013-06-01 09:53:00,
2013-06-01 01:54:00,40.9,32.2,30.15,ENE,75,1.0,3.0,71,0.00,,---,0.00,VWS V14.01,2013-06-01 09:54:00,
2013-06-01 01:55:00,40.7,32.4,30.15,ENE,75,0.0,3.0,72,0.00,,---,0.00,VWS V14.01,2013-06-01 09:55:00,
2013-06-01 01:57:00,40.5,32.2,30.15,ENE,75,0.0,0.0,72,0.00,,---,0.00,VWS V14.01,2013-06-01 09:57:00,
2013-06-01 01:58:00,40.4,32.1,30.15,ENE,75,0.0,0.0,72,0.00,,---,0.00,VWS V14.01,2013-06-01 09:58:00,
2013-06-01 01:59:00,40.4,32.4,30.15,ENE,75,0.0,0.0,73,0.00,,---,0.00,VWS V14.01,2013-06-01 09:59:00,
2013-06-01 02:00:00,40.3,32.3,30.15,ENE,75,0.0,0.0,73,0.00,,---,0.00,VWS V14.01,2013-06-01 10:00:00,
2013-06-01 02:02:00,40.1,32.5,30.15,ENE,75,0.0,0.0,74,0.00,,---,0.00,VWS V14.01,2013-06-01 10:02:00,
2013-06-01 02:03:00,40.0,32.4,30.15,ENE,75,0.0,0.0,74,0.00,,---,0.00,VWS V14.01,2013-06-01 10:03:00,
2013-06-01 02:04:00,39.9,32.6,30.15,ENE,75,0.0,0.0,75,0.00,,---,0.00,VWS V14.01,2013-06-01 10:04:00,
2013-06-01 02:05:00,39.9,32.6,30.15,ENE,75,0.0,0.0,75,0.00,,---,0.00,VWS V14.01,2013-06-01 10:05:00,
2013-06-01 02:08:00,39.4,32.2,30.15,ENE,75,0.0,0.0,75,0.00,,---,0.00,VWS V14.01,2013-06-01 10:08:00,
2013-06-01 02:09:00,39.3,31.7,30.15,ENE,75,0.0,0.0,74,0.00,,---,0.00,VWS V14.01,2013-06-01 10:09:00,
2013-06-01 02:10:00,39.2,31.6,30.15,ENE,75,0.0,0.0,74,0.00,,---,0.00,VWS V14.01,2013-06-01 10:10:00,
2013-06-01 02:11:00,39.2,32.0,30.15,ENE,75,0.0,0.0,75,0.00,,---,0.00,VWS V14.01,2013-06-01 10:11:00,
2013-06-01 02:13:00,39.0,31.8,30.16,ENE,75,0.0,0.0,75,0.00,,---,0.00,VWS V14.01,2013-06-01 10:13:00,
2013-06-01 02:15:00,39.0,31.8,30.15,ENE,75,0.0,0.0,75,0.00,,---,0.00,VWS V14.01,2013-06-01 10:15:00,
2013-06-01 02:16:00,38.9,31.7,30.15,ENE,75,0.0,0.0,75,0.00,,---,0.00,VWS V14.01,2013-06-01 10:16:00,
2013-06-01 02:18:00,39.0,32.1,30.16,ENE,75,0.0,0.0,76,0.00,,---,0.00,VWS V14.01,2013-06-01 10:18:00,
2013-06-01 02:20:00,38.9,32.3,30.16,ENE,75,0.0,0.0,77,0.00,,---,0.00,VWS V14.01,2013-06-01 10:20:00,
2013-06-01 02:21:00,38.8,32.2,30.16,ENE,75,0.0,0.0,77,0.00,,---,0.00,VWS V14.01,2013-06-01 10:21:00,
2013-06-01 02:23:00,38.6,32.0,30.16,ENE,75,0.0,0.0,77,0.00,,---,0.00,VWS V14.01,2013-06-01 10:23:00,
2013-06-01 02:25:00,38.5,31.9,30.16,ENE,75,0.0,0.0,77,0.00,,---,0.00,VWS V14.01,2013-06-01 10:25:00,
2013-06-01 02:26:00,38.5,32.2,30.16,ENE,75,0.0,0.0,78,0.00,,---,0.00,VWS V14.01,2013-06-01 10:26:00,
2013-06-01 02:29:00,38.2,32.0,30.16,ENE,75,0.0,0.0,78,0.00,,---,0.00,VWS V14.01,2013-06-01 10:29:00,
2013-06-01 02:30:00,38.0,31.8,30.16,ENE,75,0.0,0.0,78,0.00,,---,0.00,VWS V14.01,2013-06-01 10:30:00,
2013-06-01 02:31:00,38.0,31.8,30.16,ENE,75,0.0,0.0,78,0.00,,---,0.00,VWS V14.01,2013-06-01 10:31:00,
2013-06-01 02:34:00,37.7,31.5,30.16,ENE,75,0.0,0.0,78,0.00,,---,0.00,VWS V14.01,2013-06-01 10:34:00,
2013-06-01 02:35:00,37.6,31.4,30.16,ENE,75,0.0,0.0,78,0.00,,---,0.00,VWS V14.01,2013-06-01 10:35:00,
2013-06-01 02:36:00,37.6,31.4,30.16,ENE,75,0.0,1.0,78,0.00,,---,0.00,VWS V14.01,2013-06-01 10:36:00,
2013-06-01 02:39:00,37.4,31.5,30.16,ENE,75,0.0,0.0,79,0.00,,---,0.00,VWS V14.01,2013-06-01 10:39:00,
2013-06-01 02:40:00,37.4,31.5,30.16,ENE,75,0.0,0.0,79,0.00,,---,0.00,VWS V14.01,2013-06-01 10:40:00,
2013-06-01 02:41:00,37.3,31.7,30.16,ENE,75,0.0,0.0,80,0.00,,---,0.00,VWS V14.01,2013-06-01 10:41:00,
2013-06-01 02:44:00,37.1,31.8,30.16,ENE,75,0.0,0.0,81,0.00,,---,0.00,VWS V14.01,2013-06-01 10:44:00,
2013-06-01 02:45:00,37.1,31.8,30.16,ENE,75,0.0,0.0,81,0.00,,---,0.00,VWS V14.01,2013-06-01 10:45:00,
2013-06-01 02:46:00,37.0,31.7,30.16,ENE,75,0.0,0.0,81,0.00,,---,0.00,VWS V14.01,2013-06-01 10:46:00,
2013-06-01 02:47:00,37.0,31.4,30.16,ENE,75,0.0,0.0,80,0.00,,---,0.00,VWS V14.01,2013-06-01 10:47:00,
2013-06-01 02:49:00,36.9,31.6,30.16,ENE,75,0.0,0.0,81,0.00,,---,0.00,VWS V14.01,2013-06-01 10:49:00,
2013-06-01 02:50:00,36.9,31.6,30.16,ENE,75,0.0,0.0,81,0.00,,---,0.00,VWS V14.01,2013-06-01 10:50:00,
2013-06-01 02:51:00,36.8,31.5,30.16,ENE,75,0.0,0.0,81,0.00,,---,0.00,VWS V14.01,2013-06-01 10:51:00,
2013-06-01 02:52:00,36.8,31.5,30.16,ENE,75,0.0,0.0,81,0.00,,---,0.00,VWS V14.01,2013-06-01 10:52:00,
2013-06-01 02:55:00,36.6,31.6,30.16,ENE,75,0.0,0.0,82,0.00,,---,0.00,VWS V14.01,2013-06-01 10:55:00,
2013-06-01 02:56:00,36.5,31.5,30.16,ENE,75,0.0,0.0,82,0.00,,---,0.00,VWS V14.01,2013-06-01 10:56:00,
2013-06-01 02:57:00,36.5,31.5,30.16,ENE,75,0.0,0.0,82,0.00,,---,0.00,VWS V14.01,2013-06-01 10:57:00,
2013-06-01 03:00:00,36.4,31.7,30.16,ENE,75,0.0,0.0,83,0.00,,---,0.00,VWS V14.01,2013-06-01 11:00:00,
2013-06-01 03:02:00,36.2,31.5,30.16,ENE,75,0.0,0.0,83,0.00,,---,0.00,VWS V14.01,2013-06-01 11:02:00,
2013-06-01 03:05:00,36.1,31.5,30.16,ENE,75,0.0,0.0,83,0.00,,---,0.00,VWS V14.01,2013-06-01 11:05:00,
2013-06-01 03:07:00,36.1,31.7,30.16,ENE,75,0.0,0.0,84,0.00,,---,0.00,VWS V14.01,2013-06-01 11:07:00,
2013-06-01 03:10:00,35.9,31.5,30.16,ENE,75,0.0,0.0,84,0.00,,---,0.00,VWS V14.01,2013-06-01 11:10:00,
2013-06-01 03:12:00,35.8,31.5,30.16,ENE,75,0.0,0.0,84,0.00,,---,0.00,VWS V14.01,2013-06-01 11:12:00,
2013-06-01 03:15:00,35.6,31.2,30.16,ENE,75,0.0,0.0,84,0.00,,---,0.00,VWS V14.01,2013-06-01 11:15:00,
2013-06-01 03:16:00,35.6,31.2,30.16,ENE,75,0.0,0.0,84,0.00,,---,0.00,VWS V14.01,2013-06-01 11:16:00,
2013-06-01 03:17:00,35.5,31.1,30.16,ENE,75,0.0,0.0,84,0.00,,---,0.00,VWS V14.01,2013-06-01 11:17:00,
2013-06-01 03:20:00,35.4,31.1,30.16,ENE,75,0.0,0.0,84,0.00,,---,0.00,VWS V14.01,2013-06-01 11:20:00,
2013-06-01 03:21:00,35.3,31.0,30.16,ENE,75,0.0,0.0,84,0.00,,---,0.00,VWS V14.01,2013-06-01 11:21:00,
2013-06-01 03:22:00,35.3,31.2,30.16,ENE,75,0.0,0.0,85,0.00,,---,0.00,VWS V14.01,2013-06-01 11:22:00,
2013-06-01 03:23:00,35.3,31.2,30.16,ENE,75,0.0,0.0,85,0.00,,---,0.00,VWS V14.01,2013-06-01 11:23:00,
2013-06-01 03:26:00,35.1,30.8,30.16,ENE,75,0.0,0.0,84,0.00,,---,0.00,VWS V14.01,2013-06-01 11:26:00,
2013-06-01 03:27:00,35.0,30.7,30.16,ENE,75,0.0,0.0,84,0.00,,---,0.00,VWS V14.01,2013-06-01 11:27:00,
2013-06-01 03:28:00,35.0,30.7,30.16,ENE,75,0.0,0.0,84,0.00,,---,0.00,VWS V14.01,2013-06-01 11:28:00,
2013-06-01 03:31:00,34.9,30.6,30.16,ENE,75,0.0,0.0,84,0.00,,---,0.00,VWS V14.01,2013-06-01 11:31:00,
2013-06-01 03:32:00,34.9,30.6,30.16,ENE,75,0.0,0.0,84,0.00,,---,0.00,VWS V14.01,2013-06-01 11:32:00,
2013-06-01 03:33:00,34.8,30.5,30.16,ENE,75,0.0,0.0,84,0.00,,---,0.00,VWS V14.01,2013-06-01 11:33:00,
2013-06-01 03:36:00,34.7,30.7,30.16,ENE,75,0.0,0.0,85,0.00,,---,0.00,VWS V14.01,2013-06-01 11:36:00,
2013-06-01 03:37:00,34.6,30.6,30.16,ENE,75,0.0,0.0,85,0.00,,---,0.00,VWS V14.01,2013-06-01 11:37:00,
2013-06-01 03:38:00,34.6,30.6,30.16,ENE,75,0.0,0.0,85,0.00,,---,0.00,VWS V14.01,2013-06-01 11:38:00,
2013-06-01 03:41:00,34.4,30.6,30.16,ENE,75,0.0,0.0,86,0.00,,---,0.00,VWS V14.01,2013-06-01 11:41:00,
2013-06-01 03:42:00,34.4,30.6,30.16,ENE,75,0.0,0.0,86,0.00,,---,0.00,VWS V14.01,2013-06-01 11:42:00,
2013-06-01 03:43:00,34.4,30.6,30.16,ENE,75,0.0,0.0,86,0.00,,---,0.00,VWS V14.01,2013-06-01 11:43:00,
2013-06-01 03:44:00,34.4,30.6,30.16,ENE,75,0.0,0.0,86,0.00,,---,0.00,VWS V14.01,2013-06-01 11:44:00,
2013-06-01 03:46:00,34.3,30.6,30.16,ENE,75,0.0,0.0,86,0.00,,---,0.00,VWS V14.01,2013-06-01 11:46:00,
2013-06-01 03:48:00,34.2,30.5,30.16,ENE,75,0.0,0.0,86,0.00,,---,0.00,VWS V14.01,2013-06-01 11:48:00,
2013-06-01 03:49:00,34.1,30.4,30.16,ENE,75,0.0,0.0,86,0.00,,---,0.00,VWS V14.01,2013-06-01 11:49:00,
2013-06-01 03:51:00,34.1,30.4,30.16,ENE,75,0.0,0.0,86,0.00,,---,0.00,VWS V14.01,2013-06-01 11:51:00,
2013-06-01 03:52:00,34.1,30.4,30.15,ENE,75,0.0,0.0,86,0.00,,---,0.00,VWS V14.01,2013-06-01 11:52:00,
2013-06-01 03:53:00,34.0,30.5,30.15,ENE,75,0.0,0.0,87,0.00,,---,0.00,VWS V14.01,2013-06-01 11:53:00,
2013-06-01 03:54:00,34.1,30.6,30.16,ENE,75,0.0,0.0,87,0.00,,---,0.00,VWS V14.01,2013-06-01 11:54:00,
2013-06-01 03:56:00,34.2,30.7,30.15,ENE,75,0.0,0.0,87,0.00,,---,0.00,VWS V14.01,2013-06-01 11:56:00,
2013-06-01 03:57:00,34.2,30.7,30.15,ENE,75,0.0,0.0,87,0.00,,---,0.00,VWS V14.01,2013-06-01 11:57:00,
2013-06-01 03:58:00,34.1,30.6,30.15,ENE,75,0.0,0.0,87,0.00,,---,0.00,VWS V14.01,2013-06-01 11:58:00,
2013-06-01 04:00:00,34.1,30.6,30.15,ENE,75,0.0,0.0,87,0.00,,---,0.00,VWS V14.01,2013-06-01 12:00:00,
2013-06-01 04:02:00,34.1,30.6,30.15,ENE,75,0.0,0.0,87,0.00,,---,0.00,VWS V14.01,2013-06-01 12:02:00,
2013-06-01 04:03:00,34.0,30.5,30.15,ENE,75,0.0,0.0,87,0.00,,---,0.00,VWS V14.01,2013-06-01 12:03:00,
2013-06-01 04:04:00,34.0,30.5,30.15,ENE,75,0.0,0.0,87,0.00,,---,0.00,VWS V14.01,2013-06-01 12:04:00,
2013-06-01 04:05:00,33.9,30.5,30.15,ENE,75,0.0,0.0,87,0.00,,---,0.00,VWS V14.01,2013-06-01 12:05:00,
2013-06-01 04:07:00,33.8,30.1,30.15,ENE,75,0.0,0.0,86,0.00,,---,0.00,VWS V14.01,2013-06-01 12:07:00,
2013-06-01 04:08:00,33.8,30.1,30.15,ENE,75,0.0,0.0,86,0.00,,---,0.00,VWS V14.01,2013-06-01 12:08:00,
2013-06-01 04:09:00,33.8,31.7,30.15,ENE,75,0.0,0.0,92,0.00,,---,0.00,VWS V14.01,2013-06-01 12:09:00,
2013-06-01 04:10:00,33.7,30.0,30.15,ENE,75,0.0,0.0,86,0.00,,---,0.00,VWS V14.01,2013-06-01 12:10:00,
2013-06-01 04:12:00,33.7,30.2,30.15,ENE,75,0.0,0.0,87,0.00,,---,0.00,VWS V14.01,2013-06-01 12:12:00,
2013-06-01 04:13:00,33.6,30.1,30.15,ENE,75,0.0,0.0,87,0.00,,---,0.00,VWS V14.01,2013-06-01 12:13:00,
2013-06-01 04:14:00,33.6,30.1,30.15,ENE,75,0.0,0.0,87,0.00,,---,0.00,VWS V14.01,2013-06-01 12:14:00,
2013-06-01 04:15:00,33.5,30.0,30.16,ENE,75,0.0,0.0,87,0.00,,---,0.00,VWS V14.01,2013-06-01 12:15:00,
2013-06-01 04:17:00,33.4,30.2,30.15,ENE,75,0.0,0.0,88,0.00,,---,0.00,VWS V14.01,2013-06-01 12:17:00,
2013-06-01 04:18:00,33.4,30.2,30.15,ENE,75,0.0,0.0,88,0.00,,---,0.00,VWS V14.01,2013-06-01 12:18:00,
2013-06-01 04:19:00,33.3,30.1,30.15,ENE,75,0.0,0.0,88,0.00,,---,0.00,VWS V14.01,2013-06-01 12:19:00,
2013-06-01 04:20:00,33.2,30.0,30.16,ENE,75,0.0,0.0,88,0.00,,---,0.00,VWS V14.01,2013-06-01 12:20:00,
2013-06-01 04:23:00,33.1,29.9,30.16,ENE,75,0.0,0.0,88,0.00,,---,0.00,VWS V14.01,2013-06-01 12:23:00,
2013-06-01 04:24:00,33.0,29.8,30.15,ENE,75,0.0,0.0,88,0.00,,---,0.00,VWS V14.01,2013-06-01 12:24:00,
2013-06-01 04:26:00,33.0,29.8,30.16,ENE,75,0.0,0.0,88,0.00,,---,0.00,VWS V14.01,2013-06-01 12:26:00,
2013-06-01 04:28:00,33.0,29.8,30.15,ENE,75,0.0,0.0,88,0.00,,---,0.00,VWS V14.01,2013-06-01 12:28:00,
2013-06-01 04:29:00,32.9,29.7,30.15,ENE,75,0.0,0.0,88,0.00,,---,0.00,VWS V14.01,2013-06-01 12:29:00,
2013-06-01 04:31:00,32.9,30.0,30.15,ENE,75,0.0,0.0,89,0.00,,---,0.00,VWS V14.01,2013-06-01 12:31:00,
2013-06-01 04:33:00,32.9,30.0,30.15,ENE,75,0.0,0.0,89,0.00,,---,0.00,VWS V14.01,2013-06-01 12:33:00,
2013-06-01 04:34:00,32.9,30.0,30.15,ENE,75,0.0,0.0,89,0.00,,---,0.00,VWS V14.01,2013-06-01 12:34:00,
2013-06-01 04:35:00,33.0,30.4,30.15,ENE,75,0.0,0.0,90,0.00,,---,0.00,VWS V14.01,2013-06-01 12:35:00,
2013-06-01 04:36:00,33.1,30.5,30.15,ENE,75,0.0,0.0,90,0.00,,---,0.00,VWS V14.01,2013-06-01 12:36:00,
2013-06-01 04:38:00,33.3,31.0,30.15,ENE,75,0.0,0.0,91,0.00,,---,0.00,VWS V14.01,2013-06-01 12:38:00,
2013-06-01 04:39:00,33.4,31.1,30.15,ENE,75,2.0,2.0,91,0.00,,---,0.00,VWS V14.01,2013-06-01 12:39:00,
2013-06-01 04:41:00,34.0,31.6,30.15,ENE,75,0.0,2.0,91,0.00,,---,0.00,VWS V14.01,2013-06-01 12:41:00,
2013-06-01 04:42:00,34.2,31.9,30.15,ENE,69,0.0,2.0,91,0.00,,---,0.00,VWS V14.01,2013-06-01 12:42:00,
2013-06-01 04:43:00,34.9,32.5,30.15,ENE,69,0.0,2.0,91,0.00,,---,0.00,VWS V14.01,2013-06-01 12:43:00,
2013-06-01 04:44:00,35.3,32.4,30.15,ENE,69,0.0,2.0,89,0.00,,---,0.00,VWS V14.01,2013-06-01 12:44:00,
2013-06-01 04:45:00,35.3,32.4,30.15,ENE,69,0.0,2.0,89,0.00,,---,0.00,VWS V14.01,2013-06-01 12:45:00,
2013-06-01 04:46:00,35.7,32.8,30.15,ENE,69,0.0,2.0,89,0.00,,---,0.00,VWS V14.01,2013-06-01 12:46:00,
2013-06-01 04:47:00,36.0,32.8,30.15,ENE,69,0.0,0.0,88,0.00,,---,0.00,VWS V14.01,2013-06-01 12:47:00,
2013-06-01 04:49:00,36.9,32.8,30.15,NW,323,0.0,4.0,85,0.00,,---,0.00,VWS V14.01,2013-06-01 12:49:00,
2013-06-01 04:50:00,37.1,33.0,30.15,NW,323,1.0,4.0,85,0.00,,---,0.00,VWS V14.01,2013-06-01 12:50:00,
2013-06-01 04:51:00,37.5,33.1,30.15,NW,323,0.0,4.0,84,0.00,,---,0.00,VWS V14.01,2013-06-01 12:51:00,
2013-06-01 04:52:00,37.7,33.0,30.15,NW,322,2.0,3.0,83,0.00,,---,0.00,VWS V14.01,2013-06-01 12:52:00,
2013-06-01 04:54:00,38.3,33.3,30.15,NW,322,2.0,3.0,82,0.00,,---,0.00,VWS V14.01,2013-06-01 12:54:00,
2013-06-01 04:55:00,38.3,33.0,30.15,NW,322,1.0,3.0,81,0.00,,---,0.00,VWS V14.01,2013-06-01 12:55:00,
2013-06-01 04:56:00,38.5,32.9,30.15,NW,322,0.0,0.0,80,0.00,,---,0.00,VWS V14.01,2013-06-01 12:56:00,
2013-06-01 04:57:00,38.6,33.0,30.15,NW,321,4.0,4.0,80,0.00,,---,0.00,VWS V14.01,2013-06-01 12:57:00,
2013-06-01 05:00:00,39.0,33.0,30.15,NW,321,0.0,4.0,79,0.00,,---,0.00,VWS V14.01,2013-06-01 13:00:00,
2013-06-01 05:02:00,39.3,33.0,30.15,NW,317,2.0,3.0,78,0.00,,---,0.00,VWS V14.01,2013-06-01 13:02:00,
2013-06-01 05:05:00,39.8,33.2,30.15,WNW,300,4.0,5.0,77,0.00,,---,0.00,VWS V14.01,2013-06-01 13:05:00,
2013-06-01 05:07:00,40.2,33.2,30.15,WNW,303,4.0,4.0,76,0.00,,---,0.00,VWS V14.01,2013-06-01 13:07:00,
2013-06-01 05:10:00,40.4,33.1,30.15,WNW,303,0.0,4.0,75,0.00,,---,0.00,VWS V14.01,2013-06-01 13:10:00,
2013-06-01 05:12:00,40.6,33.0,30.15,WNW,303,0.0,1.0,74,0.00,,---,0.00,VWS V14.01,2013-06-01 13:12:00,
2013-06-01 05:13:00,40.6,33.0,30.15,WNW,303,0.0,1.0,74,0.00,,---,0.00,VWS V14.01,2013-06-01 13:13:00,
2013-06-01 05:15:00,40.7,32.7,30.15,NW,304,4.0,5.0,73,0.00,,---,0.00,VWS V14.01,2013-06-01 13:15:00,
2013-06-01 05:16:00,40.8,32.8,30.15,NW,304,3.0,5.0,73,0.00,,---,0.00,VWS V14.01,2013-06-01 13:16:00,
2013-06-01 05:18:00,41.1,33.1,30.15,NW,304,3.0,6.0,73,0.00,,---,0.00,VWS V14.01,2013-06-01 13:18:00,
2013-06-01 05:20:00,41.3,33.0,30.15,WNW,303,5.0,6.0,72,0.00,,---,0.00,VWS V14.01,2013-06-01 13:20:00,
2013-06-01 05:21:00,41.3,33.0,30.15,NW,306,4.0,6.0,72,0.00,,---,0.00,VWS V14.01,2013-06-01 13:21:00,
2013-06-01 05:23:00,41.3,32.6,30.15,WNW,298,2.0,4.0,71,0.00,,---,0.00,VWS V14.01,2013-06-01 13:23:00,
2013-06-01 05:25:00,41.2,32.5,30.15,WNW,298,0.0,4.0,71,0.00,,---,0.00,VWS V14.01,2013-06-01 13:25:00,
2013-06-01 05:26:00,41.1,32.8,30.15,WNW,298,1.0,4.0,72,0.00,,---,0.00,VWS V14.01,2013-06-01 13:26:00,
2013-06-01 05:28:00,40.9,32.6,30.15,WNW,298,0.0,4.0,72,0.00,,---,0.00,VWS V14.01,2013-06-01 13:28:00,
2013-06-01 05:30:00,40.6,32.3,30.15,WNW,298,1.0,4.0,72,0.00,,---,0.00,VWS V14.01,2013-06-01 13:30:00,
2013-06-01 05:31:00,40.5,32.5,30.15,WNW,298,0.0,0.0,73,0.00,,---,0.00,VWS V14.01,2013-06-01 13:31:00,
2013-06-01 05:33:00,40.2,32.2,30.15,WNW,298,0.0,1.0,73,0.00,,---,0.00,VWS V14.01,2013-06-01 13:33:00,
2013-06-01 05:34:00,40.2,32.2,30.15,WNW,298,0.0,1.0,73,0.00,,---,0.00,VWS V14.01,2013-06-01 13:34:00,
2013-06-01 05:36:00,39.9,32.3,30.15,WNW,298,0.0,1.0,74,0.00,,---,0.00,VWS V14.01,2013-06-01 13:36:00,
2013-06-01 05:39:00,39.6,32.3,30.15,WNW,298,0.0,2.0,75,0.00,,---,0.00,VWS V14.01,2013-06-01 13:39:00,
2013-06-01 05:41:00,39.5,32.2,30.15,WNW,298,0.0,2.0,75,0.00,,---,0.00,VWS V14.01,2013-06-01 13:41:00,
2013-06-01 05:42:00,39.4,32.2,30.15,WNW,299,6.0,6.0,75,0.00,,---,0.00,VWS V14.01,2013-06-01 13:42:00,
2013-06-01 05:44:00,39.5,32.6,30.15,WNW,299,4.0,6.0,76,0.00,,---,0.00,VWS V14.01,2013-06-01 13:44:00,
2013-06-01 05:46:00,39.9,32.6,30.15,WNW,300,3.0,6.0,75,0.00,,---,0.00,VWS V14.01,2013-06-01 13:46:00,
2013-06-01 05:47:00,40.1,32.8,30.15,WNW,300,2.0,3.0,75,0.00,,---,0.00,VWS V14.01,2013-06-01 13:47:00,
2013-06-01 05:49:00,40.3,32.7,30.15,WNW,300,3.0,4.0,74,0.00,,---,0.00,VWS V14.01,2013-06-01 13:49:00,
2013-06-01 05:51:00,40.6,33.0,30.15,WNW,301,0.0,6.0,74,0.00,,---,0.00,VWS V14.01,2013-06-01 13:51:00,
2013-06-01 05:52:00,40.6,32.6,30.15,WNW,301,0.0,4.0,73,0.00,,---,0.00,VWS V14.01,2013-06-01 13:52:00,
2013-06-01 05:53:00,40.6,32.6,30.15,WNW,301,0.0,4.0,73,0.00,,---,0.00,VWS V14.01,2013-06-01 13:53:00,
2013-06-01 05:54:00,40.6,32.6,30.15,WNW,301,0.0,4.0,73,0.00,,---,0.00,VWS V14.01,2013-06-01 13:54:00,
2013-06-01 05:56:00,40.5,32.5,30.15,WNW,301,0.0,0.0,73,0.00,,---,0.00,VWS V14.01,2013-06-01 13:56:00,
2013-06-01 05:57:00,40.4,32.4,30.15,WNW,301,0.0,0.0,73,0.00,,---,0.00,VWS V14.01,2013-06-01 13:57:00,
2013-06-01 05:58:00,40.3,32.7,30.15,WNW,301,0.0,1.0,74,0.00,,---,0.00,VWS V14.01,2013-06-01 13:58:00,
2013-06-01 05:59:00,40.2,32.6,30.15,WNW,301,0.0,1.0,74,0.00,,---,0.00,VWS V14.01,2013-06-01 13:59:00,
2013-06-01 06:02:00,39.9,32.3,30.15,WNW,301,0.0,0.0,74,0.00,,---,0.00,VWS V14.01,2013-06-01 14:02:00,
2013-06-01 06:03:00,39.8,32.5,30.15,WNW,301,0.0,1.0,75,0.00,,---,0.00,VWS V14.01,2013-06-01 14:03:00,
2013-06-01 06:04:00,39.7,32.4,30.15,WNW,301,1.0,1.0,75,0.00,,---,0.00,VWS V14.01,2013-06-01 14:04:00,
2013-06-01 06:07:00,39.5,32.2,30.15,WNW,301,1.0,3.0,75,0.00,,---,0.00,VWS V14.01,2013-06-01 14:07:00,
2013-06-01 06:08:00,39.5,32.6,30.15,WNW,301,0.0,3.0,76,0.00,,---,0.00,VWS V14.01,2013-06-01 14:08:00,
2013-06-01 06:09:00,39.5,32.2,30.15,WNW,301,3.0,3.0,75,0.00,,---,0.00,VWS V14.01,2013-06-01 14:09:00,
2013-06-01 06:10:00,39.5,32.6,30.15,WNW,301,0.0,3.0,76,0.00,,---,0.00,VWS V14.01,2013-06-01 14:10:00,
2013-06-01 06:12:00,39.5,32.6,30.14,WNW,301,0.0,3.0,76,0.00,,---,0.00,VWS V14.01,2013-06-01 14:12:00,
2013-06-01 06:13:00,39.5,32.6,30.14,WNW,301,0.0,3.0,76,0.00,,---,0.00,VWS V14.01,2013-06-01 14:13:00,
2013-06-01 06:14:00,39.6,32.7,30.14,WNW,301,2.0,4.0,76,0.00,,---,0.00,VWS V14.01,2013-06-01 14:14:00,
2013-06-01 06:16:00,39.6,32.3,30.14,WNW,301,2.0,4.0,75,0.00,,---,0.00,VWS V14.01,2013-06-01 14:16:00,
2013-06-01 06:18:00,39.8,32.5,30.15,WNW,301,2.0,4.0,75,0.00,,---,0.00,VWS V14.01,2013-06-01 14:18:00,
2013-06-01 06:19:00,39.9,32.6,30.14,WNW,301,0.0,5.0,75,0.00,,---,0.00,VWS V14.01,2013-06-01 14:19:00,
2013-06-01 06:20:00,39.9,32.6,30.14,WNW,301,2.0,5.0,75,0.00,,---,0.00,VWS V14.01,2013-06-01 14:20:00,
2013-06-01 06:21:00,40.1,32.8,30.14,WNW,301,0.0,5.0,75,0.00,,---,0.00,VWS V14.01,2013-06-01 14:21:00,
2013-06-01 06:23:00,40.2,32.6,30.14,WNW,301,3.0,5.0,74,0.00,,---,0.00,VWS V14.01,2013-06-01 14:23:00,
2013-06-01 06:25:00,40.4,32.8,30.14,WNW,301,3.0,6.0,74,0.00,,---,0.00,VWS V14.01,2013-06-01 14:25:00,
2013-06-01 06:26:00,40.5,32.5,30.14,WNW,301,2.0,6.0,73,0.00,,---,0.00,VWS V14.01,2013-06-01 14:26:00,
2013-06-01 06:28:00,40.6,32.6,30.14,WNW,302,5.0,5.0,73,0.00,,---,0.00,VWS V14.01,2013-06-01 14:28:00,
2013-06-01 06:29:00,40.7,32.7,30.14,WNW,302,0.0,5.0,73,0.00,,---,0.00,VWS V14.01,2013-06-01 14:29:00,
2013-06-01 06:30:00,40.7,32.7,30.14,WNW,302,3.0,5.0,73,0.00,,---,0.00,VWS V14.01,2013-06-01 14:30:00,
2013-06-01 06:31:00,40.7,32.7,30.14,WNW,302,3.0,3.0,73,0.00,,---,0.00,VWS V14.01,2013-06-01 14:31:00,
2013-06-01 06:34:00,40.7,32.7,30.14,WNW,302,1.0,5.0,73,0.00,,---,0.00,VWS V14.01,2013-06-01 14:34:00,
2013-06-01 06:35:00,40.7,32.7,30.14,WNW,302,0.0,5.0,73,0.00,,---,0.00,VWS V14.01,2013-06-01 14:35:00,
2013-06-01 06:36:00,40.7,32.7,30.14,WNW,302,0.0,5.0,73,0.00,,---,0.00,VWS V14.01,2013-06-01 14:36:00,
2013-06-01 06:37:00,40.7,32.7,30.14,WNW,302,3.0,4.0,73,0.00,,---,0.00,VWS V14.01,2013-06-01 14:37:00,
2013-06-01 06:39:00,40.6,32.6,30.14,WNW,302,2.0,4.0,73,0.00,,---,0.00,VWS V14.01,2013-06-01 14:39:00,
2013-06-01 06:41:00,40.5,32.5,30.14,WNW,302,3.0,4.0,73,0.00,,---,0.00,VWS V14.01,2013-06-01 14:41:00,
2013-06-01 06:42:00,40.5,32.5,30.14,WNW,302,2.0,5.0,73,0.00,,---,0.00,VWS V14.01,2013-06-01 14:42:00,
2013-06-01 06:44:00,40.4,32.4,30.14,WNW,302,5.0,6.0,73,0.00,,---,0.00,VWS V14.01,2013-06-01 14:44:00,
2013-06-01 06:46:00,40.5,32.5,30.14,WNW,302,3.0,6.0,73,0.00,,---,0.00,VWS V14.01,2013-06-01 14:46:00,
2013-06-01 06:48:00,40.6,32.6,30.14,NW,309,3.0,6.0,73,0.00,,---,0.00,VWS V14.01,2013-06-01 14:48:00,
2013-06-01 06:49:00,40.7,32.7,30.14,NW,317,3.0,6.0,73,0.00,,---,0.00,VWS V14.01,2013-06-01 14:49:00,
2013-06-01 06:51:00,40.9,32.9,30.14,NW,311,4.0,7.0,73,0.00,,---,0.00,VWS V14.01,2013-06-01 14:51:00,
2013-06-01 06:53:00,41.0,33.0,30.14,NW,317,5.0,7.0,73,0.00,,---,0.00,VWS V14.01,2013-06-01 14:53:00,
2013-06-01 06:54:00,41.2,32.9,30.14,NNW,332,6.0,8.0,72,0.00,,---,0.00,VWS V14.01,2013-06-01 14:54:00,
2013-06-01 06:56:00,41.5,32.8,30.14,NNW,328,5.0,8.0,71,0.00,,---,0.00,VWS V14.01,2013-06-01 14:56:00,
2013-06-01 06:57:00,41.6,32.9,30.14,NNW,328,5.0,5.0,71,0.00,,---,0.00,VWS V14.01,2013-06-01 14:57:00,
2013-06-01 06:58:00,41.7,33.0,30.14,NW,319,7.0,7.0,71,0.00,,---,0.00,VWS V14.01,2013-06-01 14:58:00,
2013-06-01 06:59:00,42.0,32.9,30.14,NW,315,5.0,8.0,70,0.00,,---,0.00,VWS V14.01,2013-06-01 14:59:00,
2013-06-01 07:00:00,42.0,32.9,30.14,NW,315,5.0,8.0,70,0.00,,---,0.00,VWS V14.01,2013-06-01 15:00:00,
2013-06-01 07:01:00,42.3,33.2,30.14,NW,323,5.0,5.0,70,0.00,,---,0.00,VWS V14.01,2013-06-01 15:01:00,
2013-06-01 07:02:00,42.4,33.3,30.14,NW,321,3.0,7.0,70,0.00,,---,0.00,VWS V14.01,2013-06-01 15:02:00,
2013-06-01 07:03:00,42.5,33.1,30.14,NW,323,4.0,7.0,69,0.00,,---,0.00,VWS V14.01,2013-06-01 15:03:00,
2013-06-01 07:04:00,42.7,33.2,30.14,NW,322,3.0,7.0,69,0.00,,---,0.00,VWS V14.01,2013-06-01 15:04:00,
2013-06-01 07:05:00,42.8,33.3,30.14,NW,322,4.0,7.0,69,0.00,,---,0.00,VWS V14.01,2013-06-01 15:05:00,
2013-06-01 07:06:00,42.9,33.1,30.14,NW,317,5.0,7.0,68,0.00,,---,0.00,VWS V14.01,2013-06-01 15:06:00,
2013-06-01 07:07:00,43.1,33.3,30.14,NW,318,5.0,6.0,68,0.00,,---,0.00,VWS V14.01,2013-06-01 15:07:00,
2013-06-01 07:08:00,43.2,33.4,30.14,NW,318,5.0,6.0,68,0.00,,---,0.00,VWS V14.01,2013-06-01 15:08:00,
2013-06-01 07:10:00,43.4,33.2,30.14,NW,324,4.0,6.0,67,0.00,,---,0.00,VWS V14.01,2013-06-01 15:10:00,
2013-06-01 07:11:00,43.6,33.4,30.14,NW,324,4.0,6.0,67,0.00,,---,0.00,VWS V14.01,2013-06-01 15:11:00,
2013-06-01 07:13:00,43.7,33.5,30.14,NW,324,1.0,5.0,67,0.00,,---,0.00,VWS V14.01,2013-06-01 15:13:00,
2013-06-01 07:15:00,43.8,33.6,30.14,NW,324,0.0,5.0,67,0.00,,---,0.00,VWS V14.01,2013-06-01 15:15:00,
2013-06-01 07:16:00,43.9,33.7,30.14,NW,324,0.0,3.0,67,0.00,,---,0.00,VWS V14.01,2013-06-01 15:16:00,
2013-06-01 07:18:00,44.0,33.8,30.14,NW,324,0.0,3.0,67,0.00,,---,0.00,VWS V14.01,2013-06-01 15:18:00,
2013-06-01 07:19:00,44.0,33.8,30.14,NW,324,0.0,3.0,67,0.00,,---,0.00,VWS V14.01,2013-06-01 15:19:00,
2013-06-01 07:20:00,44.0,33.8,30.14,NW,324,0.0,4.0,67,0.00,,---,0.00,VWS V14.01,2013-06-01 15:20:00,
2013-06-01 07:21:00,44.0,33.8,30.14,NW,324,3.0,5.0,67,0.00,,---,0.00,VWS V14.01,2013-06-01 15:21:00,
2013-06-01 07:23:00,43.9,33.7,30.14,NW,324,1.0,5.0,67,0.00,,---,0.00,VWS V14.01,2013-06-01 15:23:00,
2013-06-01 07:24:00,43.9,33.7,30.14,NW,324,3.0,5.0,67,0.00,,---,0.00,VWS V14.01,2013-06-01 15:24:00,
2013-06-01 07:25:00,43.8,33.6,30.14,NW,324,3.0,5.0,67,0.00,,---,0.00,VWS V14.01,2013-06-01 15:25:00,
2013-06-01 07:28:00,43.6,33.4,30.14,NW,315,6.0,8.0,67,0.00,,---,0.00,VWS V14.01,2013-06-01 15:28:00,
2013-06-01 07:29:00,43.7,33.5,30.14,NW,313,5.0,8.0,67,0.00,,---,0.00,VWS V14.01,2013-06-01 15:29:00,
2013-06-01 07:30:00,43.8,33.6,30.13,NW,310,3.0,8.0,67,0.00,,---,0.00,VWS V14.01,2013-06-01 15:30:00,
2013-06-01 07:33:00,44.1,33.5,30.14,NW,311,5.0,7.0,66,0.00,,---,0.00,VWS V14.01,2013-06-01 15:33:00,
2013-06-01 07:34:00,44.2,33.6,30.13,NNW,328,6.0,7.0,66,0.00,,---,0.00,VWS V14.01,2013-06-01 15:34:00,
2013-06-01 07:35:00,44.4,33.8,30.13,NW,313,5.0,7.0,66,0.00,,---,0.00,VWS V14.01,2013-06-01 15:35:00,
2013-06-01 07:38:00,44.7,33.7,30.14,NW,325,4.0,6.0,65,0.00,,---,0.00,VWS V14.01,2013-06-01 15:38:00,
2013-06-01 07:39:00,44.7,33.7,30.13,NW,312,4.0,6.0,65,0.00,,---,0.00,VWS V14.01,2013-06-01 15:39:00,
2013-06-01 07:40:00,44.8,33.8,30.13,NW,315,3.0,7.0,65,0.00,,---,0.00,VWS V14.01,2013-06-01 15:40:00,
2013-06-01 07:41:00,44.9,33.9,30.13,NW,313,7.0,7.0,65,0.00,,---,0.00,VWS V14.01,2013-06-01 15:41:00,
2013-06-01 07:44:00,44.9,33.9,30.13,NW,307,4.0,7.0,65,0.00,,---,0.00,VWS V14.01,2013-06-01 15:44:00,
2013-06-01 07:45:00,45.0,34.0,30.13,WNW,303,2.0,7.0,65,0.00,,---,0.00,VWS V14.01,2013-06-01 15:45:00,
2013-06-01 07:46:00,45.0,34.0,30.13,NW,305,5.0,5.0,65,0.00,,---,0.00,VWS V14.01,2013-06-01 15:46:00,
2013-06-01 07:49:00,45.1,34.0,30.13,NW,315,0.0,5.0,65,0.00,,---,0.00,VWS V14.01,2013-06-01 15:49:00,
2013-06-01 07:50:00,45.1,34.0,30.13,NW,315,0.0,5.0,65,0.00,,---,0.00,VWS V14.01,2013-06-01 15:50:00,
2013-06-01 07:51:00,45.2,34.2,30.13,NW,313,1.0,3.0,65,0.00,,---,0.00,VWS V14.01,2013-06-01 15:51:00,
2013-06-01 07:54:00,45.4,34.3,30.13,NW,313,0.0,3.0,65,0.00,,---,0.00,VWS V14.01,2013-06-01 15:54:00,
2013-06-01 07:55:00,45.5,34.4,30.13,NW,313,0.0,3.0,65,0.00,,---,0.00,VWS V14.01,2013-06-01 15:55:00,
2013-06-01 07:56:00,45.6,34.5,30.14,NW,313,2.0,2.0,65,0.00,,---,0.00,VWS V14.01,2013-06-01 15:56:00,
2013-06-01 07:59:00,45.8,33.9,30.14,NW,313,3.0,4.0,63,0.00,,---,0.00,VWS V14.01,2013-06-01 15:59:00,
2013-06-01 08:00:00,45.9,34.0,30.13,NW,313,0.0,5.0,63,0.00,,---,0.00,VWS V14.01,2013-06-01 16:00:00,
2013-06-01 08:01:00,45.9,34.0,30.13,NW,313,2.0,3.0,63,0.00,,---,0.00,VWS V14.01,2013-06-01 16:01:00,
2013-06-01 08:04:00,46.1,34.2,30.13,NW,313,1.0,3.0,63,0.00,,---,0.00,VWS V14.01,2013-06-01 16:04:00,
2013-06-01 08:06:00,46.1,34.2,30.13,NW,313,4.0,4.0,63,0.00,,---,0.00,VWS V14.01,2013-06-01 16:06:00,
2013-06-01 08:07:00,46.2,33.9,30.13,NW,313,4.0,5.0,62,0.00,,---,0.00,VWS V14.01,2013-06-01 16:07:00,
2013-06-01 08:10:00,46.4,34.5,30.14,NW,326,1.0,5.0,63,0.00,,---,0.00,VWS V14.01,2013-06-01 16:10:00,
2013-06-01 08:11:00,46.6,34.3,30.14,NW,326,3.0,5.0,62,0.00,,---,0.00,VWS V14.01,2013-06-01 16:11:00,
2013-06-01 08:12:00,46.7,34.4,30.13,NW,326,2.0,3.0,62,0.00,,---,0.00,VWS V14.01,2013-06-01 16:12:00,
2013-06-01 08:15:00,46.9,34.6,30.14,NW,326,0.0,5.0,62,0.00,,---,0.00,VWS V14.01,2013-06-01 16:15:00,
2013-06-01 08:16:00,47.0,34.3,30.14,NW,326,3.0,5.0,61,0.00,,---,0.00,VWS V14.01,2013-06-01 16:16:00,
2013-06-01 08:17:00,47.1,34.4,30.13,NW,326,4.0,4.0,61,0.00,,---,0.00,VWS V14.01,2013-06-01 16:17:00,
2013-06-01 08:20:00,47.6,34.4,30.13,NW,326,1.0,4.0,60,0.00,,---,0.00,VWS V14.01,2013-06-01 16:20:00,
2013-06-01 08:21:00,47.7,34.5,30.13,NW,326,1.0,4.0,60,0.00,,---,0.00,VWS V14.01,2013-06-01 16:21:00,
2013-06-01 08:22:00,47.9,34.7,30.13,NW,326,1.0,2.0,60,0.00,,---,0.00,VWS V14.01,2013-06-01 16:22:00,
2013-06-01 08:25:00,48.3,34.7,30.13,NW,326,0.0,4.0,59,0.00,,---,0.00,VWS V14.01,2013-06-01 16:25:00,
2013-06-01 08:26:00,48.5,34.8,30.13,NW,326,1.0,1.0,59,0.00,,---,0.00,VWS V14.01,2013-06-01 16:26:00,
2013-06-01 08:27:00,48.6,34.5,30.13,NW,326,0.0,2.0,58,0.00,,---,0.00,VWS V14.01,2013-06-01 16:27:00,
2013-06-01 08:31:00,49.1,35.0,30.13,NW,326,1.0,4.0,58,0.00,,---,0.00,VWS V14.01,2013-06-01 16:31:00,
2013-06-01 08:32:00,49.3,34.7,30.13,NW,326,1.0,2.0,57,0.00,,---,0.00,VWS V14.01,2013-06-01 16:32:00,
2013-06-01 08:33:00,49.4,34.8,30.13,NW,326,0.0,3.0,57,0.00,,---,0.00,VWS V14.01,2013-06-01 16:33:00,
2013-06-01 08:36:00,49.7,34.7,30.13,NW,326,2.0,4.0,56,0.00,,---,0.00,VWS V14.01,2013-06-01 16:36:00,
2013-06-01 08:37:00,49.9,34.8,30.13,NW,322,1.0,5.0,56,0.00,,---,0.00,VWS V14.01,2013-06-01 16:37:00,
2013-06-01 08:38:00,49.9,34.8,30.13,NW,322,0.0,5.0,56,0.00,,---,0.00,VWS V14.01,2013-06-01 16:38:00,
2013-06-01 08:41:00,50.2,35.1,30.13,NW,322,0.0,5.0,56,0.00,,---,0.00,VWS V14.01,2013-06-01 16:41:00,
2013-06-01 08:42:00,50.3,35.2,30.13,NW,322,3.0,3.0,56,0.00,,---,0.00,VWS V14.01,2013-06-01 16:42:00,
2013-06-01 08:44:00,50.4,34.9,30.13,NW,322,0.0,3.0,55,0.00,,---,0.00,VWS V14.01,2013-06-01 16:44:00,
2013-06-01 08:46:00,50.7,35.1,30.13,NW,322,0.0,3.0,55,0.00,,---,0.00,VWS V14.01,2013-06-01 16:46:00,
2013-06-01 08:47:00,50.8,35.2,30.13,NW,322,0.0,0.0,55,0.00,,---,0.00,VWS V14.01,2013-06-01 16:47:00,
2013-06-01 08:48:00,50.9,34.9,30.13,NW,322,0.0,0.0,54,0.00,,---,0.00,VWS V14.01,2013-06-01 16:48:00,
2013-06-01 08:49:00,51.0,35.0,30.13,NW,322,0.0,1.0,54,0.00,,---,0.00,VWS V14.01,2013-06-01 16:49:00,
2013-06-01 08:51:00,51.2,35.1,30.13,NW,322,0.0,3.0,54,0.00,,---,0.00,VWS V14.01,2013-06-01 16:51:00,
2013-06-01 08:52:00,51.3,34.8,30.13,NW,322,3.0,3.0,53,0.00,,---,0.00,VWS V14.01,2013-06-01 16:52:00,
2013-06-01 08:53:00,51.4,34.4,30.13,NW,322,1.0,3.0,52,0.00,,---,0.00,VWS V14.01,2013-06-01 16:53:00,
2013-06-01 08:54:00,51.6,34.6,30.13,NW,322,0.0,3.0,52,0.00,,---,0.00,VWS V14.01,2013-06-01 16:54:00,
2013-06-01 08:56:00,51.7,34.2,30.13,NW,322,2.0,5.0,51,0.00,,---,0.00,VWS V14.01,2013-06-01 16:56:00,
2013-06-01 08:57:00,51.7,34.2,30.13,NW,322,2.0,2.0,51,0.00,,---,0.00,VWS V14.01,2013-06-01 16:57:00,
2013-06-01 08:58:00,51.8,34.8,30.13,NW,322,1.0,6.0,52,0.00,,---,0.00,VWS V14.01,2013-06-01 16:58:00,
2013-06-01 09:00:00,51.9,34.8,30.13,NW,322,0.0,6.0,52,0.00,,---,0.00,VWS V14.01,2013-06-01 17:00:00,
2013-06-01 09:01:00,51.9,34.8,30.13,NW,322,1.0,6.0,52,0.00,,---,0.00,VWS V14.01,2013-06-01 17:01:00,
2013-06-01 09:02:00,52.0,34.9,30.13,NW,322,2.0,2.0,52,0.00,,---,0.00,VWS V14.01,2013-06-01 17:02:00,
2013-06-01 09:03:00,52.1,34.5,30.13,NW,322,0.0,2.0,51,0.00,,---,0.00,VWS V14.01,2013-06-01 17:03:00,
2013-06-01 09:05:00,52.2,35.1,30.13,NW,322,0.0,2.0,52,0.00,,---,0.00,VWS V14.01,2013-06-01 17:05:00,
2013-06-01 09:06:00,52.4,35.3,30.13,WNW,294,0.0,5.0,52,0.00,,---,0.00,VWS V14.01,2013-06-01 17:06:00,
2013-06-01 09:07:00,52.6,35.5,30.13,WNW,284,0.0,3.0,52,0.00,,---,0.00,VWS V14.01,2013-06-01 17:07:00,
2013-06-01 09:08:00,52.7,35.6,30.13,WNW,286,4.0,4.0,52,0.00,,---,0.00,VWS V14.01,2013-06-01 17:08:00,
2013-06-01 09:10:00,52.8,34.7,30.13,WNW,300,1.0,5.0,50,0.00,,---,0.00,VWS V14.01,2013-06-01 17:10:00,
2013-06-01 09:12:00,52.9,34.8,30.13,WNW,300,2.0,5.0,50,0.00,,---,0.00,VWS V14.01,2013-06-01 17:12:00,
2013-06-01 09:13:00,52.8,34.7,30.13,WNW,300,3.0,5.0,50,0.00,,---,0.00,VWS V14.01,2013-06-01 17:13:00,
2013-06-01 09:14:00,52.8,34.7,30.13,WNW,300,3.0,5.0,50,0.00,,---,0.00,VWS V14.01,2013-06-01 17:14:00,
2013-06-01 09:15:00,52.8,34.7,30.13,WNW,300,1.0,5.0,50,0.00,,---,0.00,VWS V14.01,2013-06-01 17:15:00,
2013-06-01 09:17:00,52.8,34.7,30.13,WNW,300,3.0,4.0,50,0.00,,---,0.00,VWS V14.01,2013-06-01 17:17:00,
2013-06-01 09:18:00,52.8,34.7,30.13,WNW,300,4.0,4.0,50,0.00,,---,0.00,VWS V14.01,2013-06-01 17:18:00,
2013-06-01 09:19:00,52.9,34.8,30.13,WNW,300,2.0,4.0,50,0.00,,---,0.00,VWS V14.01,2013-06-01 17:19:00,
2013-06-01 09:20:00,53.0,34.9,30.13,WNW,300,3.0,4.0,50,0.00,,---,0.00,VWS V14.01,2013-06-01 17:20:00,
2013-06-01 09:23:00,53.1,35.0,30.13,WNW,300,3.0,5.0,50,0.00,,---,0.00,VWS V14.01,2013-06-01 17:23:00,
2013-06-01 09:24:00,53.2,35.1,30.13,WNW,300,1.0,5.0,50,0.00,,---,0.00,VWS V14.01,2013-06-01 17:24:00,
2013-06-01 09:26:00,53.3,35.2,30.13,WNW,300,1.0,5.0,50,0.00,,---,0.00,VWS V14.01,2013-06-01 17:26:00,
2013-06-01 09:28:00,53.5,35.3,30.13,WNW,300,1.0,2.0,50,0.00,,---,0.00,VWS V14.01,2013-06-01 17:28:00,
2013-06-01 09:29:00,53.7,35.5,30.13,WNW,300,2.0,5.0,50,0.00,,---,0.00,VWS V14.01,2013-06-01 17:29:00,
2013-06-01 09:31:00,53.9,35.7,30.13,WNW,300,2.0,5.0,50,0.00,,---,0.00,VWS V14.01,2013-06-01 17:31:00,
2013-06-01 09:33:00,54.1,35.4,30.13,WNW,300,3.0,4.0,49,0.00,,---,0.00,VWS V14.01,2013-06-01 17:33:00,
2013-06-01 09:34:00,54.1,34.9,30.13,WNW,300,3.0,4.0,48,0.00,,---,0.00,VWS V14.01,2013-06-01 17:34:00,
2013-06-01 09:35:00,54.1,34.9,30.13,WNW,300,3.0,4.0,48,0.00,,---,0.00,VWS V14.01,2013-06-01 17:35:00,
2013-06-01 09:36:00,54.1,34.3,30.13,WNW,300,3.0,4.0,47,0.00,,---,0.00,VWS V14.01,2013-06-01 17:36:00,
2013-06-01 09:38:00,54.2,34.4,30.13,WNW,300,1.0,3.0,47,0.00,,---,0.00,VWS V14.01,2013-06-01 17:38:00,
2013-06-01 09:39:00,54.2,34.4,30.13,WNW,300,2.0,3.0,47,0.00,,---,0.00,VWS V14.01,2013-06-01 17:39:00,
2013-06-01 09:40:00,54.3,34.5,30.13,WNW,300,2.0,4.0,47,0.00,,---,0.00,VWS V14.01,2013-06-01 17:40:00,
2013-06-01 09:41:00,54.4,35.1,30.13,WNW,300,3.0,4.0,48,0.00,,---,0.00,VWS V14.01,2013-06-01 17:41:00,
2013-06-01 09:44:00,54.6,34.8,30.13,WNW,300,0.0,3.0,47,0.00,,---,0.00,VWS V14.01,2013-06-01 17:44:00,
2013-06-01 09:45:00,54.9,34.5,30.13,WNW,300,4.0,4.0,46,0.00,,---,0.00,VWS V14.01,2013-06-01 17:45:00,
2013-06-01 09:46:00,54.9,34.0,30.13,WNW,300,2.0,4.0,45,0.00,,---,0.00,VWS V14.01,2013-06-01 17:46:00,
2013-06-01 09:49:00,55.2,34.8,30.13,WNW,300,2.0,3.0,46,0.00,,---,0.00,VWS V14.01,2013-06-01 17:49:00,
2013-06-01 09:51:00,55.3,34.3,30.13,WNW,300,2.0,3.0,45,0.00,,---,0.00,VWS V14.01,2013-06-01 17:51:00,
2013-06-01 09:54:00,55.5,34.0,30.13,WNW,300,1.0,4.0,44,0.00,,---,0.00,VWS V14.01,2013-06-01 17:54:00,
2013-06-01 09:56:00,55.7,34.1,30.13,WNW,300,3.0,4.0,44,0.00,,---,0.00,VWS V14.01,2013-06-01 17:56:00,
2013-06-01 09:57:00,55.7,34.1,30.13,WNW,300,3.0,4.0,44,0.00,,---,0.00,VWS V14.01,2013-06-01 17:57:00,
2013-06-01 09:59:00,55.9,34.9,30.13,WNW,300,3.0,4.0,45,0.00,,---,0.00,VWS V14.01,2013-06-01 17:59:00,
2013-06-01 10:00:00,55.9,34.3,30.13,WNW,300,3.0,4.0,44,0.00,,---,0.00,VWS V14.01,2013-06-01 18:00:00,
2013-06-01 10:01:00,56.0,34.4,30.13,WNW,300,2.0,4.0,44,0.00,,---,0.00,VWS V14.01,2013-06-01 18:01:00,
2013-06-01 10:02:00,56.1,34.5,30.13,WNW,300,2.0,3.0,44,0.00,,---,0.00,VWS V14.01,2013-06-01 18:02:00,
2013-06-01 10:04:00,56.2,34.0,30.13,WNW,300,2.0,4.0,43,0.00,,---,0.00,VWS V14.01,2013-06-01 18:04:00,
2013-06-01 10:05:00,56.3,34.1,30.13,WNW,300,2.0,4.0,43,0.00,,---,0.00,VWS V14.01,2013-06-01 18:05:00,
2013-06-01 10:06:00,56.4,34.2,30.13,WNW,300,3.0,4.0,43,0.00,,---,0.00,VWS V14.01,2013-06-01 18:06:00,
2013-06-01 10:08:00,56.6,34.4,30.13,WNW,300,0.0,4.0,43,0.00,,---,0.00,VWS V14.01,2013-06-01 18:08:00,
2013-06-01 10:09:00,56.8,34.6,30.13,WNW,300,3.0,5.0,43,0.00,,---,0.00,VWS V14.01,2013-06-01 18:09:00,
2013-06-01 10:10:00,56.9,34.1,30.13,WNW,300,2.0,5.0,42,0.00,,---,0.00,VWS V14.01,2013-06-01 18:10:00,
2013-06-01 10:12:00,57.1,33.6,30.13,WNW,300,3.0,3.0,41,0.00,,---,0.00,VWS V14.01,2013-06-01 18:12:00,
2013-06-01 10:13:00,57.2,33.7,30.13,WNW,300,3.0,4.0,41,0.00,,---,0.00,VWS V14.01,2013-06-01 18:13:00,
2013-06-01 10:15:00,57.3,33.8,30.13,WNW,300,0.0,4.0,41,0.00,,---,0.00,VWS V14.01,2013-06-01 18:15:00,
2013-06-01 10:16:00,57.4,33.9,30.13,WNW,300,2.0,5.0,41,0.00,,---,0.00,VWS V14.01,2013-06-01 18:16:00,
2013-06-01 10:17:00,57.5,33.4,30.13,WNW,300,1.0,2.0,40,0.00,,---,0.00,VWS V14.01,2013-06-01 18:17:00,
2013-06-01 10:18:00,57.7,32.9,30.13,WNW,300,1.0,3.0,39,0.00,,---,0.00,VWS V14.01,2013-06-01 18:18:00,
2013-06-01 10:20:00,57.7,32.9,30.13,WNW,300,1.0,4.0,39,0.00,,---,0.00,VWS V14.01,2013-06-01 18:20:00,
2013-06-01 10:21:00,57.8,33.0,30.13,WNW,300,3.0,4.0,39,0.00,,---,0.00,VWS V14.01,2013-06-01 18:21:00,
2013-06-01 10:22:00,57.9,33.1,30.13,WNW,300,2.0,3.0,39,0.00,,---,0.00,VWS V14.01,2013-06-01 18:22:00,
2013-06-01 10:24:00,58.1,32.7,30.13,WNW,300,1.0,3.0,38,0.00,,---,0.00,VWS V14.01,2013-06-01 18:24:00,
2013-06-01 10:25:00,58.2,32.1,30.13,WNW,300,0.0,3.0,37,0.00,,---,0.00,VWS V14.01,2013-06-01 18:25:00,
2013-06-01 10:26:00,58.3,32.2,30.13,WNW,300,1.0,3.0,37,0.00,,---,0.00,VWS V14.01,2013-06-01 18:26:00,
2013-06-01 10:27:00,58.4,32.9,30.13,WNW,300,3.0,3.0,38,0.00,,---,0.00,VWS V14.01,2013-06-01 18:27:00,
2013-06-01 10:29:00,58.5,31.7,30.13,WNW,300,3.0,4.0,36,0.00,,---,0.00,VWS V14.01,2013-06-01 18:29:00,
2013-06-01 10:30:00,58.5,31.7,30.13,WNW,300,2.0,4.0,36,0.00,,---,0.00,VWS V14.01,2013-06-01 18:30:00,
2013-06-01 10:31:00,58.6,31.8,30.13,WNW,300,0.0,4.0,36,0.00,,---,0.00,VWS V14.01,2013-06-01 18:31:00,
2013-06-01 10:32:00,58.7,32.5,30.13,WNW,300,1.0,2.0,37,0.00,,---,0.00,VWS V14.01,2013-06-01 18:32:00,
2013-06-01 10:34:00,58.9,32.7,30.13,WNW,300,0.0,5.0,37,0.00,,---,0.00,VWS V14.01,2013-06-01 18:34:00,
2013-06-01 10:36:00,58.9,32.0,30.13,WNW,300,0.0,5.0,36,0.00,,---,0.00,VWS V14.01,2013-06-01 18:36:00,
2013-06-01 10:37:00,59.0,32.8,30.12,WNW,300,2.0,4.0,37,0.00,,---,0.00,VWS V14.01,2013-06-01 18:37:00,
2013-06-01 10:39:00,59.2,33.0,30.12,WNW,300,3.0,4.0,37,0.00,,---,0.00,VWS V14.01,2013-06-01 18:39:00,
2013-06-01 10:41:00,59.3,31.0,30.12,WNW,300,1.0,4.0,34,0.00,,---,0.00,VWS V14.01,2013-06-01 18:41:00,
2013-06-01 10:42:00,59.4,31.8,30.12,WNW,300,2.0,3.0,35,0.00,,---,0.00,VWS V14.01,2013-06-01 18:42:00,
2013-06-01 10:45:00,59.6,31.9,30.12,WNW,300,1.0,3.0,35,0.00,,---,0.00,VWS V14.01,2013-06-01 18:45:00,
2013-06-01 10:46:00,59.7,32.7,30.12,WNW,300,3.0,3.0,36,0.00,,---,0.00,VWS V14.01,2013-06-01 18:46:00,
2013-06-01 10:47:00,59.8,32.1,30.12,WNW,300,2.0,3.0,35,0.00,,---,0.00,VWS V14.01,2013-06-01 18:47:00,
2013-06-01 10:50:00,59.9,32.2,30.12,WNW,300,1.0,4.0,35,0.00,,---,0.00,VWS V14.01,2013-06-01 18:50:00,
2013-06-01 10:51:00,60.0,33.0,30.12,WNW,300,1.0,4.0,36,0.00,,---,0.00,VWS V14.01,2013-06-01 18:51:00,
2013-06-01 10:52:00,60.1,33.1,30.12,WNW,300,0.0,2.0,36,0.00,,---,0.00,VWS V14.01,2013-06-01 18:52:00,
2013-06-01 10:53:00,60.1,33.1,30.12,WNW,300,0.0,2.0,36,0.00,,---,0.00,VWS V14.01,2013-06-01 18:53:00,
2013-06-01 10:55:00,60.4,32.7,30.12,WNW,300,1.0,4.0,35,0.00,,---,0.00,VWS V14.01,2013-06-01 18:55:00,
2013-06-01 10:56:00,60.4,32.7,30.12,WNW,300,0.0,0.0,35,0.00,,---,0.00,VWS V14.01,2013-06-01 18:56:00,
2013-06-01 10:58:00,60.4,32.7,30.12,WNW,300,2.0,4.0,35,0.00,,---,0.00,VWS V14.01,2013-06-01 18:58:00,
2013-06-01 11:01:00,60.5,33.4,30.12,WNW,300,4.0,4.0,36,0.00,,---,0.00,VWS V14.01,2013-06-01 19:01:00,
2013-06-01 11:03:00,60.7,33.6,30.12,WNW,300,0.0,4.0,36,0.00,,---,0.00,VWS V14.01,2013-06-01 19:03:00,
2013-06-01 11:06:00,60.8,33.7,30.12,WNW,300,2.0,4.0,36,0.00,,---,0.00,VWS V14.01,2013-06-01 19:06:00,
2013-06-01 11:07:00,60.8,33.0,30.12,WNW,300,1.0,2.0,35,0.00,,---,0.00,VWS V14.01,2013-06-01 19:07:00,
2013-06-01 11:08:00,60.8,33.0,30.12,WNW,300,2.0,3.0,35,0.00,,---,0.00,VWS V14.01,2013-06-01 19:08:00,
2013-06-01 11:11:00,60.9,33.8,30.12,WNW,300,2.0,5.0,36,0.00,,---,0.00,VWS V14.01,2013-06-01 19:11:00,
2013-06-01 11:12:00,60.9,33.8,30.11,WNW,300,2.0,3.0,36,0.00,,---,0.00,VWS V14.01,2013-06-01 19:12:00,
2013-06-01 11:13:00,61.0,33.2,30.12,WNW,300,2.0,5.0,35,0.00,,---,0.00,VWS V14.01,2013-06-01 19:13:00,
2013-06-01 11:14:00,61.0,33.2,30.12,WNW,300,0.0,5.0,35,0.00,,---,0.00,VWS V14.01,2013-06-01 19:14:00,
2013-06-01 11:16:00,60.9,33.1,30.12,WNW,300,1.0,5.0,35,0.00,,---,0.00,VWS V14.01,2013-06-01 19:16:00,
2013-06-01 11:17:00,60.9,33.8,30.12,WNW,300,0.0,2.0,36,0.00,,---,0.00,VWS V14.01,2013-06-01 19:17:00,
2013-06-01 11:18:00,61.0,33.9,30.11,WNW,300,2.0,2.0,36,0.00,,---,0.00,VWS V14.01,2013-06-01 19:18:00,
2013-06-01 11:19:00,61.0,33.9,30.11,WNW,300,1.0,2.0,36,0.00,,---,0.00,VWS V14.01,2013-06-01 19:19:00,
2013-06-01 11:21:00,61.2,33.3,30.11,WNW,300,2.0,5.0,35,0.00,,---,0.00,VWS V14.01,2013-06-01 19:21:00,
2013-06-01 11:22:00,61.3,33.4,30.11,WNW,300,0.0,1.0,35,0.00,,---,0.00,VWS V14.01,2013-06-01 19:22:00,
2013-06-01 11:24:00,61.4,33.5,30.11,WNW,300,0.0,4.0,35,0.00,,---,0.00,VWS V14.01,2013-06-01 19:24:00,
2013-06-01 11:26:00,61.5,33.6,30.11,WNW,300,2.0,6.0,35,0.00,,---,0.00,VWS V14.01,2013-06-01 19:26:00,
2013-06-01 11:28:00,61.6,34.4,30.11,WNW,300,0.0,1.0,36,0.00,,---,0.00,VWS V14.01,2013-06-01 19:28:00,
2013-06-01 11:29:00,61.7,34.5,30.11,WNW,300,1.0,3.0,36,0.00,,---,0.00,VWS V14.01,2013-06-01 19:29:00,
2013-06-01 11:31:00,62.1,33.4,30.11,WNW,300,1.0,1.0,34,0.00,,---,0.00,VWS V14.01,2013-06-01 19:31:00,
2013-06-01 11:33:00,62.2,34.2,30.11,WNW,300,2.0,4.0,35,0.00,,---,0.00,VWS V14.01,2013-06-01 19:33:00,
2013-06-01 11:34:00,62.3,33.6,30.11,WNW,300,1.0,6.0,34,0.00,,---,0.00,VWS V14.01,2013-06-01 19:34:00,
2013-06-01 11:36:00,62.4,33.7,30.11,WNW,300,2.0,2.0,34,0.00,,---,0.00,VWS V14.01,2013-06-01 19:36:00,
2013-06-01 11:38:00,62.4,32.9,30.11,NE,40,0.0,4.0,33,0.00,,---,0.00,VWS V14.01,2013-06-01 19:38:00,
2013-06-01 11:39:00,62.5,33.0,30.11,NNE,33,1.0,5.0,33,0.00,,---,0.00,VWS V14.01,2013-06-01 19:39:00,
2013-06-01 11:41:00,62.6,36.0,30.11,WNW,286,3.0,6.0,37,0.00,,---,0.00,VWS V14.01,2013-06-01 19:41:00,
2013-06-01 11:43:00,62.8,34.0,30.11,NW,319,2.0,6.0,34,0.00,,---,0.00,VWS V14.01,2013-06-01 19:43:00,
2013-06-01 11:44:00,62.8,34.0,30.11,NW,319,4.0,6.0,34,0.00,,---,0.00,VWS V14.01,2013-06-01 19:44:00,
2013-06-01 11:45:00,62.9,32.6,30.11,NW,319,2.0,6.0,32,0.00,,---,0.00,VWS V14.01,2013-06-01 19:45:00,
2013-06-01 11:47:00,62.9,34.8,30.11,WNW,288,5.0,5.0,35,0.00,,---,0.00,VWS V14.01,2013-06-01 19:47:00,
2013-06-01 11:49:00,63.1,33.6,30.11,WNW,292,0.0,5.0,33,0.00,,---,0.00,VWS V14.01,2013-06-01 19:49:00,
2013-06-01 11:50:00,63.1,34.3,30.11,NW,319,4.0,5.0,34,0.00,,---,0.00,VWS V14.01,2013-06-01 19:50:00,
2013-06-01 11:52:00,63.2,33.6,30.11,NW,312,3.0,6.0,33,0.00,,---,0.00,VWS V14.01,2013-06-01 19:52:00,
2013-06-01 11:54:00,63.2,33.6,30.11,West,279,0.0,7.0,33,0.00,,---,0.00,VWS V14.01,2013-06-01 19:54:00,
2013-06-01 11:55:00,63.2,36.5,30.11,West,279,0.0,7.0,37,0.00,,---,0.00,VWS V14.01,2013-06-01 19:55:00,
2013-06-01 11:57:00,63.6,34.7,30.10,WNW,290,0.0,3.0,34,0.00,,---,0.00,VWS V14.01,2013-06-01 19:57:00,
2013-06-01 11:59:00,63.9,34.3,30.10,NW,313,0.0,5.0,33,0.00,,---,0.00,VWS V14.01,2013-06-01 19:59:00,
2013-06-01 12:00:00,64.0,35.8,30.10,NW,316,2.0,5.0,35,0.00,,---,0.00,VWS V14.01,2013-06-01 20:00:00,
2013-06-01 12:02:00,64.0,34.3,30.10,WSW,258,0.0,4.0,33,0.00,,---,0.00,VWS V14.01,2013-06-01 20:02:00,
2013-06-01 12:04:00,64.1,34.4,30.10,WNW,303,3.0,4.0,33,0.00,,---,0.00,VWS V14.01,2013-06-01 20:04:00,
2013-06-01 12:05:00,64.1,34.4,30.10,NW,308,1.0,4.0,33,0.00,,---,0.00,VWS V14.01,2013-06-01 20:05:00,
2013-06-01 12:08:00,64.2,35.3,30.10,NW,317,6.0,6.0,34,0.00,,---,0.00,VWS V14.01,2013-06-01 20:08:00,
2013-06-01 12:09:00,64.3,33.8,30.10,NW,309,5.0,6.0,32,0.00,,---,0.00,VWS V14.01,2013-06-01 20:09:00,
2013-06-01 12:10:00,64.2,33.8,30.10,NW,309,1.0,6.0,32,0.00,,---,0.00,VWS V14.01,2013-06-01 20:10:00,
2013-06-01 12:13:00,64.1,33.7,30.10,NW,307,6.0,6.0,32,0.00,,---,0.00,VWS V14.01,2013-06-01 20:13:00,
2013-06-01 12:14:00,64.0,35.1,30.10,WNW,291,2.0,8.0,34,0.00,,---,0.00,VWS V14.01,2013-06-01 20:14:00,
2013-06-01 12:15:00,64.0,34.3,30.10,WNW,291,1.0,8.0,33,0.00,,---,0.00,VWS V14.01,2013-06-01 20:15:00,
2013-06-01 12:18:00,63.8,34.9,30.10,NW,321,5.0,5.0,34,0.00,,---,0.00,VWS V14.01,2013-06-01 20:18:00,
2013-06-01 12:19:00,63.8,34.2,30.10,NW,325,3.0,8.0,33,0.00,,---,0.00,VWS V14.01,2013-06-01 20:19:00,
2013-06-01 12:20:00,63.7,34.1,30.10,WNW,298,6.0,8.0,33,0.00,,---,0.00,VWS V14.01,2013-06-01 20:20:00,
2013-06-01 12:21:00,63.6,34.0,30.10,WNW,296,1.0,8.0,33,0.00,,---,0.00,VWS V14.01,2013-06-01 20:21:00,
2013-06-01 12:23:00,63.7,35.6,30.10,West,279,6.0,8.0,35,0.00,,---,0.00,VWS V14.01,2013-06-01 20:23:00,
2013-06-01 12:24:00,63.9,35.7,30.10,WSW,246,3.0,8.0,35,0.00,,---,0.00,VWS V14.01,2013-06-01 20:24:00,
2013-06-01 12:25:00,64.0,36.5,30.10,WSW,246,0.0,8.0,36,0.00,,---,0.00,VWS V14.01,2013-06-01 20:25:00,
2013-06-01 12:26:00,64.2,35.3,30.10,WSW,246,0.0,8.0,34,0.00,,---,0.00,VWS V14.01,2013-06-01 20:26:00,
2013-06-01 12:28:00,64.7,35.7,30.10,NW,316,5.0,6.0,34,0.00,,---,0.00,VWS V14.01,2013-06-01 20:28:00,
2013-06-01 12:30:00,64.9,35.9,30.10,West,276,0.0,6.0,34,0.00,,---,0.00,VWS V14.01,2013-06-01 20:30:00,
2013-06-01 12:31:00,65.0,36.0,30.10,NW,311,5.0,6.0,34,0.00,,---,0.00,VWS V14.01,2013-06-01 20:31:00,
2013-06-01 12:34:00,65.0,34.5,30.10,WNW,302,0.0,6.0,32,0.00,,---,0.00,VWS V14.01,2013-06-01 20:34:00,
2013-06-01 12:36:00,65.0,34.5,30.10,West,281,5.0,6.0,32,0.00,,---,0.00,VWS V14.01,2013-06-01 20:36:00,
2013-06-01 12:39:00,65.4,34.8,30.10,WNW,289,0.0,6.0,32,0.00,,---,0.00,VWS V14.01,2013-06-01 20:39:00,
2013-06-01 12:41:00,65.6,35.0,30.10,NW,320,1.0,6.0,32,0.00,,---,0.00,VWS V14.01,2013-06-01 20:41:00,
2013-06-01 12:44:00,65.7,33.5,30.10,WNW,302,3.0,5.0,30,0.00,,---,0.00,VWS V14.01,2013-06-01 20:44:00,
2013-06-01 12:46:00,65.7,35.1,30.10,NNW,327,6.0,6.0,32,0.00,,---,0.00,VWS V14.01,2013-06-01 20:46:00,
2013-06-01 12:49:00,65.5,34.1,30.10,WNW,296,3.0,7.0,31,0.00,,---,0.00,VWS V14.01,2013-06-01 20:49:00,
2013-06-01 12:51:00,65.6,34.2,30.09,WNW,284,1.0,7.0,31,0.00,,---,0.00,VWS V14.01,2013-06-01 20:51:00,
2013-06-01 12:52:00,65.7,35.8,30.10,WNW,284,0.0,1.0,33,0.00,,---,0.00,VWS V14.01,2013-06-01 20:52:00,
2013-06-01 12:54:00,66.0,34.5,30.10,West,276,3.0,7.0,31,0.00,,---,0.00,VWS V14.01,2013-06-01 20:54:00,
2013-06-01 12:56:00,66.2,35.5,30.09,West,276,4.0,7.0,32,0.00,,---,0.00,VWS V14.01,2013-06-01 20:56:00,
2013-06-01 12:57:00,66.3,35.6,30.09,WNW,285,0.0,6.0,32,0.00,,---,0.00,VWS V14.01,2013-06-01 20:57:00,
2013-06-01 13:00:00,66.4,34.0,30.09,WNW,290,1.0,7.0,30,0.00,,---,0.00,VWS V14.01,2013-06-01 21:00:00,
2013-06-01 13:01:00,66.4,33.2,30.10,WNW,300,3.0,7.0,29,0.00,,---,0.00,VWS V14.01,2013-06-01 21:01:00,
2013-06-01 13:02:00,66.3,34.0,30.09,WNW,299,1.0,6.0,30,0.00,,---,0.00,VWS V14.01,2013-06-01 21:02:00,
2013-06-01 13:05:00,66.4,34.9,30.10,WNW,300,2.0,6.0,31,0.00,,---,0.00,VWS V14.01,2013-06-01 21:05:00,
2013-06-01 13:07:00,66.6,34.2,30.09,West,279,3.0,4.0,30,0.00,,---,0.00,VWS V14.01,2013-06-01 21:07:00,
2013-06-01 13:08:00,66.6,33.4,30.09,WNW,289,0.0,4.0,29,0.00,,---,0.00,VWS V14.01,2013-06-01 21:08:00,
2013-06-01 13:10:00,66.8,36.0,30.09,WNW,301,2.0,7.0,32,0.00,,---,0.00,VWS V14.01,2013-06-01 21:10:00,
2013-06-01 13:12:00,66.8,35.2,30.10,NW,304,0.0,4.0,31,0.00,,---,0.00,VWS V14.01,2013-06-01 21:12:00,
2013-06-01 13:13:00,66.8,35.2,30.10,West,268,3.0,5.0,31,0.00,,---,0.00,VWS V14.01,2013-06-01 21:13:00,
2013-06-01 13:15:00,67.0,34.6,30.09,WNW,284,3.0,7.0,30,0.00,,---,0.00,VWS V14.01,2013-06-01 21:15:00,
2013-06-01 13:17:00,67.0,34.6,30.09,WNW,302,3.0,5.0,30,0.00,,---,0.00,VWS V14.01,2013-06-01 21:17:00,
2013-06-01 13:18:00,67.0,34.6,30.09,WNW,302,0.0,5.0,30,0.00,,---,0.00,VWS V14.01,2013-06-01 21:18:00,
2013-06-01 13:21:00,66.9,32.8,30.10,WNW,282,0.0,5.0,28,0.00,,---,0.00,VWS V14.01,2013-06-01 21:21:00,
2013-06-01 13:22:00,66.8,34.4,30.09,NW,309,3.0,3.0,30,0.00,,---,0.00,VWS V14.01,2013-06-01 21:22:00,
2013-06-01 13:23:00,66.8,33.5,30.09,NNW,327,5.0,5.0,29,0.00,,---,0.00,VWS V14.01,2013-06-01 21:23:00,
2013-06-01 13:26:00,66.2,33.0,30.09,WNW,286,3.0,5.0,29,0.00,,---,0.00,VWS V14.01,2013-06-01 21:26:00,
2013-06-01 13:27:00,66.1,33.8,30.09,WNW,286,1.0,2.0,30,0.00,,---,0.00,VWS V14.01,2013-06-01 21:27:00,
2013-06-01 13:28:00,66.1,33.8,30.09,West,260,3.0,6.0,30,0.00,,---,0.00,VWS V14.01,2013-06-01 21:28:00,
2013-06-01 13:31:00,66.5,35.0,30.09,WNW,299,2.0,6.0,31,0.00,,---,0.00,VWS V14.01,2013-06-01 21:31:00,
2013-06-01 13:32:00,66.6,34.2,30.09,WNW,296,1.0,5.0,30,0.00,,---,0.00,VWS V14.01,2013-06-01 21:32:00,
2013-06-01 13:33:00,66.6,34.2,30.09,West,281,2.0,5.0,30,0.00,,---,0.00,VWS V14.01,2013-06-01 21:33:00,
2013-06-01 13:34:00,66.7,34.3,30.09,West,265,1.0,5.0,30,0.00,,---,0.00,VWS V14.01,2013-06-01 21:34:00,
2013-06-01 13:36:00,66.7,34.3,30.09,NW,322,6.0,7.0,30,0.00,,---,0.00,VWS V14.01,2013-06-01 21:36:00,
2013-06-01 13:37:00,66.4,34.9,30.09,NW,323,1.0,6.0,31,0.00,,---,0.00,VWS V14.01,2013-06-01 21:37:00,
2013-06-01 13:38:00,66.3,34.8,30.09,NW,323,4.0,6.0,31,0.00,,---,0.00,VWS V14.01,2013-06-01 21:38:00,
2013-06-01 13:39:00,66.2,34.7,30.09,WNW,284,3.0,6.0,31,0.00,,---,0.00,VWS V14.01,2013-06-01 21:39:00,
2013-06-01 13:41:00,66.2,33.0,30.09,NW,316,1.0,1.0,29,0.00,,---,0.00,VWS V14.01,2013-06-01 21:41:00,
2013-06-01 13:43:00,66.2,33.9,30.09,WNW,291,0.0,4.0,30,0.00,,---,0.00,VWS V14.01,2013-06-01 21:43:00,
2013-06-01 13:44:00,66.2,34.7,30.09,WNW,286,3.0,4.0,31,0.00,,---,0.00,VWS V14.01,2013-06-01 21:44:00,
2013-06-01 13:45:00,66.4,34.9,30.09,WNW,289,7.0,7.0,31,0.00,,---,0.00,VWS V14.01,2013-06-01 21:45:00,
2013-06-01 13:47:00,66.4,34.0,30.09,NW,309,3.0,7.0,30,0.00,,---,0.00,VWS V14.01,2013-06-01 21:47:00,
2013-06-01 13:48:00,66.2,33.0,30.09,West,278,3.0,7.0,29,0.00,,---,0.00,VWS V14.01,2013-06-01 21:48:00,
2013-06-01 13:49:00,66.2,33.9,30.09,West,277,2.0,7.0,30,0.00,,---,0.00,VWS V14.01,2013-06-01 21:49:00,
2013-06-01 13:50:00,66.3,34.0,30.10,West,275,0.0,7.0,30,0.00,,---,0.00,VWS V14.01,2013-06-01 21:50:00,
2013-06-01 13:52:00,66.6,35.0,30.09,West,266,3.0,3.0,31,0.00,,---,0.00,VWS V14.01,2013-06-01 21:52:00,
2013-06-01 13:53:00,66.9,35.3,30.09,West,267,1.0,7.0,31,0.00,,---,0.00,VWS V14.01,2013-06-01 21:53:00,
2013-06-01 13:54:00,67.1,35.5,30.09,West,276,3.0,7.0,31,0.00,,---,0.00,VWS V14.01,2013-06-01 21:54:00,
2013-06-01 13:55:00,67.2,33.0,30.10,NNW,329,4.0,7.0,28,0.00,,---,0.00,VWS V14.01,2013-06-01 21:55:00,
2013-06-01 13:57:00,67.0,33.7,30.09,NNW,336,2.0,3.0,29,0.00,,---,0.00,VWS V14.01,2013-06-01 21:57:00,
2013-06-01 13:58:00,66.9,34.5,30.09,WNW,288,0.0,6.0,30,0.00,,---,0.00,VWS V14.01,2013-06-01 21:58:00,
2013-06-01 13:59:00,66.9,36.1,30.09,West,271,3.0,6.0,32,0.00,,---,0.00,VWS V14.01,2013-06-01 21:59:00,
2013-06-01 14:00:00,67.0,33.7,30.09,West,268,0.0,6.0,29,0.00,,---,0.00,VWS V14.01,2013-06-01 22:00:00,
2013-06-01 14:02:00,67.2,33.0,30.09,West,267,0.0,3.0,28,0.00,,---,0.00,VWS V14.01,2013-06-01 22:02:00,
2013-06-01 14:03:00,67.3,34.0,30.09,West,263,3.0,3.0,29,0.00,,---,0.00,VWS V14.01,2013-06-01 22:03:00,
2013-06-01 14:04:00,67.4,34.1,30.09,West,262,5.0,7.0,29,0.00,,---,0.00,VWS V14.01,2013-06-01 22:04:00,
2013-06-01 14:05:00,67.4,34.1,30.09,WNW,300,9.0,9.0,29,0.00,,---,0.00,VWS V14.01,2013-06-01 22:05:00,
2013-06-01 14:07:00,67.3,34.0,30.09,NW,308,3.0,6.0,29,0.00,,---,0.00,VWS V14.01,2013-06-01 22:07:00,
2013-06-01 14:09:00,67.1,35.5,30.09,WNW,282,0.0,6.0,31,0.00,,---,0.00,VWS V14.01,2013-06-01 22:09:00,
2013-06-01 14:10:00,67.1,35.5,30.09,WNW,288,0.0,6.0,31,0.00,,---,0.00,VWS V14.01,2013-06-01 22:10:00,
2013-06-01 14:13:00,67.2,35.6,30.09,West,278,6.0,6.0,31,0.00,,---,0.00,VWS V14.01,2013-06-01 22:13:00,
2013-06-01 14:14:00,67.3,36.5,30.09,NW,309,4.0,6.0,32,0.00,,---,0.00,VWS V14.01,2013-06-01 22:14:00,
2013-06-01 14:15:00,67.4,36.5,30.09,West,277,4.0,7.0,32,0.00,,---,0.00,VWS V14.01,2013-06-01 22:15:00,
2013-06-01 14:16:00,67.5,36.6,30.09,West,273,2.0,7.0,32,0.00,,---,0.00,VWS V14.01,2013-06-01 22:16:00,
2013-06-01 14:18:00,67.6,37.5,30.09,WNW,282,3.0,5.0,33,0.00,,---,0.00,VWS V14.01,2013-06-01 22:18:00,
2013-06-01 14:19:00,67.7,36.8,30.09,WNW,299,5.0,8.0,32,0.00,,---,0.00,VWS V14.01,2013-06-01 22:19:00,
2013-06-01 14:20:00,67.7,36.8,30.09,WNW,295,1.0,8.0,32,0.00,,---,0.00,VWS V14.01,2013-06-01 22:20:00,
2013-06-01 14:21:00,67.7,35.2,30.09,WNW,294,0.0,8.0,30,0.00,,---,0.00,VWS V14.01,2013-06-01 22:21:00,
2013-06-01 14:23:00,67.9,37.0,30.09,WNW,300,0.0,5.0,32,0.00,,---,0.00,VWS V14.01,2013-06-01 22:23:00,
2013-06-01 14:25:00,67.9,37.0,30.09,West,265,4.0,7.0,32,0.00,,---,0.00,VWS V14.01,2013-06-01 22:25:00,
2013-06-01 14:26:00,67.9,37.8,30.08,West,279,7.0,7.0,33,0.00,,---,0.00,VWS V14.01,2013-06-01 22:26:00,
2013-06-01 14:28:00,67.8,35.3,30.09,WNW,283,6.0,7.0,30,0.00,,---,0.00,VWS V14.01,2013-06-01 22:28:00,
2013-06-01 14:30:00,67.7,36.0,30.09,West,280,0.0,9.0,31,0.00,,---,0.00,VWS V14.01,2013-06-01 22:30:00,
2013-06-01 14:31:00,67.7,36.0,30.09,West,280,0.0,9.0,31,0.00,,---,0.00,VWS V14.01,2013-06-01 22:31:00,
2013-06-01 14:33:00,67.9,37.0,30.08,WNW,294,5.0,6.0,32,0.00,,---,0.00,VWS V14.01,2013-06-01 22:33:00,
2013-06-01 14:35:00,68.1,35.5,30.08,WSW,257,4.0,6.0,30,0.00,,---,0.00,VWS V14.01,2013-06-01 22:35:00,
2013-06-01 14:36:00,68.1,35.5,30.08,West,269,0.0,6.0,30,0.00,,---,0.00,VWS V14.01,2013-06-01 22:36:00,
2013-06-01 14:39:00,68.3,35.7,30.09,West,266,0.0,6.0,30,0.00,,---,0.00,VWS V14.01,2013-06-01 22:39:00,
2013-06-01 14:40:00,68.5,37.5,30.08,WNW,296,1.0,6.0,32,0.00,,---,0.00,VWS V14.01,2013-06-01 22:40:00,
2013-06-01 14:41:00,68.5,37.5,30.08,SW,234,2.0,6.0,32,0.00,,---,0.00,VWS V14.01,2013-06-01 22:41:00,
2013-06-01 14:44:00,68.7,36.9,30.08,WSW,252,0.0,6.0,31,0.00,,---,0.00,VWS V14.01,2013-06-01 22:44:00,
2013-06-01 14:45:00,68.7,37.7,30.08,WSW,251,2.0,6.0,32,0.00,,---,0.00,VWS V14.01,2013-06-01 22:45:00,
2013-06-01 14:46:00,68.7,36.0,30.08,West,277,2.0,6.0,30,0.00,,---,0.00,VWS V14.01,2013-06-01 22:46:00,
2013-06-01 14:47:00,68.7,36.0,30.08,WSW,254,1.0,5.0,30,0.00,,---,0.00,VWS V14.01,2013-06-01 22:47:00,
2013-06-01 14:49:00,68.7,36.9,30.08,WSW,246,0.0,7.0,31,0.00,,---,0.00,VWS V14.01,2013-06-01 22:49:00,
2013-06-01 14:50:00,68.8,37.0,30.08,WSW,247,0.0,7.0,31,0.00,,---,0.00,VWS V14.01,2013-06-01 22:50:00,
2013-06-01 14:51:00,68.8,38.5,30.08,WSW,247,0.0,7.0,33,0.00,,---,0.00,VWS V14.01,2013-06-01 22:51:00,
2013-06-01 14:52:00,68.8,36.1,30.08,SW,230,3.0,5.0,30,0.00,,---,0.00,VWS V14.01,2013-06-01 22:52:00,
2013-06-01 14:54:00,68.9,37.0,30.08,WNW,301,1.0,5.0,31,0.00,,---,0.00,VWS V14.01,2013-06-01 22:54:00,
2013-06-01 14:56:00,68.7,35.2,30.08,WNW,301,1.0,5.0,29,0.00,,---,0.00,VWS V14.01,2013-06-01 22:56:00,
2013-06-01 14:57:00,68.5,35.9,30.08,West,263,3.0,3.0,30,0.00,,---,0.00,VWS V14.01,2013-06-01 22:57:00,
2013-06-01 14:59:00,68.3,37.3,30.08,WNW,302,0.0,6.0,32,0.00,,---,0.00,VWS V14.01,2013-06-01 22:59:00,
2013-06-01 15:01:00,68.5,37.5,30.08,West,268,0.0,0.0,32,0.00,,---,0.00,VWS V14.01,2013-06-01 23:01:00,
2013-06-01 15:02:00,68.5,37.5,30.08,West,260,4.0,4.0,32,0.00,,---,0.00,VWS V14.01,2013-06-01 23:02:00,
2013-06-01 15:03:00,68.7,38.5,30.08,West,276,4.0,6.0,33,0.00,,---,0.00,VWS V14.01,2013-06-01 23:03:00,
2013-06-01 15:04:00,68.8,38.5,30.08,WNW,285,2.0,9.0,33,0.00,,---,0.00,VWS V14.01,2013-06-01 23:04:00,
2013-06-01 15:07:00,68.8,39.3,30.08,WNW,290,1.0,2.0,34,0.00,,---,0.00,VWS V14.01,2013-06-01 23:07:00,
2013-06-01 15:08:00,68.9,39.4,30.08,West,267,4.0,5.0,34,0.00,,---,0.00,VWS V14.01,2013-06-01 23:08:00,
2013-06-01 15:09:00,69.0,39.5,30.08,NNW,336,1.0,6.0,34,0.00,,---,0.00,VWS V14.01,2013-06-01 23:09:00,
2013-06-01 15:12:00,69.2,38.9,30.08,NNW,341,1.0,4.0,33,0.00,,---,0.00,VWS V14.01,2013-06-01 23:12:00,
2013-06-01 15:13:00,69.3,39.8,30.08,West,281,4.0,5.0,34,0.00,,---,0.00,VWS V14.01,2013-06-01 23:13:00,
2013-06-01 15:14:00,69.4,38.3,30.08,NW,305,7.0,7.0,32,0.00,,---,0.00,VWS V14.01,2013-06-01 23:14:00,
2013-06-01 15:17:00,69.5,38.4,30.08,SW,227,3.0,5.0,32,0.00,,---,0.00,VWS V14.01,2013-06-01 23:17:00,
2013-06-01 15:19:00,69.6,38.5,30.08,NW,315,1.0,6.0,32,0.00,,---,0.00,VWS V14.01,2013-06-01 23:19:00,
2013-06-01 15:20:00,69.6,38.5,30.08,WNW,285,1.0,6.0,32,0.00,,---,0.00,VWS V14.01,2013-06-01 23:20:00,
2013-06-01 15:22:00,69.6,38.5,30.08,WSW,244,3.0,3.0,32,0.00,,---,0.00,VWS V14.01,2013-06-01 23:22:00,
2013-06-01 15:24:00,69.7,38.5,30.08,WSW,254,1.0,8.0,32,0.00,,---,0.00,VWS V14.01,2013-06-01 23:24:00,
2013-06-01 15:25:00,69.7,37.7,30.08,West,262,1.0,8.0,31,0.00,,---,0.00,VWS V14.01,2013-06-01 23:25:00,
2013-06-01 15:27:00,69.8,40.2,30.08,WSW,238,5.0,5.0,34,0.00,,---,0.00,VWS V14.01,2013-06-01 23:27:00,
2013-06-01 15:28:00,69.9,38.7,30.08,WSW,252,2.0,7.0,32,0.00,,---,0.00,VWS V14.01,2013-06-01 23:28:00,
2013-06-01 15:29:00,70.0,38.0,30.08,WSW,246,4.0,8.0,31,0.00,,---,0.00,VWS V14.01,2013-06-01 23:29:00,
2013-06-01 15:30:00,70.1,38.1,30.08,WSW,255,5.0,8.0,31,0.00,,---,0.00,VWS V14.01,2013-06-01 23:30:00,
2013-06-01 15:32:00,70.1,40.5,30.08,West,260,5.0,5.0,34,0.00,,---,0.00,VWS V14.01,2013-06-01 23:32:00,
2013-06-01 15:33:00,70.1,38.1,30.08,West,269,4.0,7.0,31,0.00,,---,0.00,VWS V14.01,2013-06-01 23:33:00,
2013-06-01 15:35:00,70.0,38.0,30.08,WNW,286,0.0,7.0,31,0.00,,---,0.00,VWS V14.01,2013-06-01 23:35:00,
2013-06-01 15:37:00,70.1,38.1,30.08,SW,236,4.0,4.0,31,0.00,,---,0.00,VWS V14.01,2013-06-01 23:37:00,
2013-06-01 15:38:00,70.1,38.1,30.07,WSW,250,6.0,6.0,31,0.00,,---,0.00,VWS V14.01,2013-06-01 23:38:00,
2013-06-01 15:39:00,70.1,36.4,30.07,SSW,195,0.0,6.0,29,0.00,,---,0.00,VWS V14.01,2013-06-01 23:39:00,
2013-06-01 15:41:00,70.2,37.3,30.07,SSW,195,0.0,6.0,30,0.00,,---,0.00,VWS V14.01,2013-06-01 23:41:00,
2013-06-01 15:42:00,70.3,37.4,30.07,SW,220,1.0,1.0,30,0.00,,---,0.00,VWS V14.01,2013-06-01 23:42:00,
2013-06-01 15:43:00,70.3,37.4,30.07,SW,236,4.0,7.0,30,0.00,,---,0.00,VWS V14.01,2013-06-01 23:43:00,
2013-06-01 15:46:00,70.4,37.5,30.07,SW,228,2.0,8.0,30,0.00,,---,0.00,VWS V14.01,2013-06-01 23:46:00,
2013-06-01 15:47:00,70.5,37.6,30.07,SSW,201,0.0,5.0,30,0.00,,---,0.00,VWS V14.01,2013-06-01 23:47:00,
2013-06-01 15:48:00,70.5,37.6,30.07,WSW,246,2.0,5.0,30,0.00,,---,0.00,VWS V14.01,2013-06-01 23:48:00,
2013-06-01 15:51:00,70.7,37.8,30.07,SW,227,0.0,5.0,30,0.00,,---,0.00,VWS V14.01,2013-06-01 23:51:00,
2013-06-01 15:53:00,70.7,36.9,30.07,SSW,211,3.0,4.0,29,0.00,,---,0.00,VWS V14.01,2013-06-01 23:53:00,
2013-06-01 15:56:00,70.7,37.8,30.07,WNW,294,0.0,8.0,30,0.00,,---,0.00,VWS V14.01,2013-06-01 23:56:00,
2013-06-01 15:58:00,70.7,37.8,30.07,WSW,243,4.0,6.0,30,0.00,,---,0.00,VWS V14.01,2013-06-01 23:58:00,
2013-06-01 16:01:00,70.1,37.3,30.07,NW,322,3.0,6.0,30,0.00,,---,0.00,VWS V14.01,2013-06-02 00:01:00,
2013-06-01 16:03:00,69.7,37.7,30.06,West,278,2.0,6.0,31,0.00,,---,0.00,VWS V14.01,2013-06-02 00:03:00,
2013-06-01 16:04:00,69.7,37.7,30.06,WSW,249,3.0,7.0,31,0.00,,---,0.00,VWS V14.01,2013-06-02 00:04:00,
2013-06-01 16:06:00,69.7,36.0,30.07,South,190,5.0,7.0,29,0.00,,---,0.00,VWS V14.01,2013-06-02 00:06:00,
2013-06-01 16:08:00,69.8,36.1,30.07,SW,223,3.0,4.0,29,0.00,,---,0.00,VWS V14.01,2013-06-02 00:08:00,
2013-06-01 16:09:00,69.8,36.1,30.07,SW,223,2.0,4.0,29,0.00,,---,0.00,VWS V14.01,2013-06-02 00:09:00,
2013-06-01 16:11:00,69.9,37.1,30.06,WNW,285,1.0,5.0,30,0.00,,---,0.00,VWS V14.01,2013-06-02 00:11:00,
2013-06-01 16:13:00,70.0,36.3,30.06,West,267,0.0,5.0,29,0.00,,---,0.00,VWS V14.01,2013-06-02 00:13:00,
2013-06-01 16:14:00,70.0,35.4,30.06,West,273,0.0,5.0,28,0.00,,---,0.00,VWS V14.01,2013-06-02 00:14:00,
2013-06-01 16:17:00,70.0,36.3,30.06,WNW,282,0.0,4.0,29,0.00,,---,0.00,VWS V14.01,2013-06-02 00:17:00,
2013-06-01 16:19:00,70.1,35.5,30.06,WNW,282,6.0,6.0,28,0.00,,---,0.00,VWS V14.01,2013-06-02 00:19:00,
2013-06-01 16:22:00,70.0,36.3,30.06,WNW,288,2.0,3.0,29,0.00,,---,0.00,VWS V14.01,2013-06-02 00:22:00,
2013-06-01 16:24:00,70.0,37.2,30.06,NW,324,3.0,5.0,30,0.00,,---,0.00,VWS V14.01,2013-06-02 00:24:00,
2013-06-01 16:25:00,70.0,35.4,30.06,NW,325,3.0,5.0,28,0.00,,---,0.00,VWS V14.01,2013-06-02 00:25:00,
2013-06-01 16:27:00,69.7,35.2,30.06,NW,323,4.0,5.0,28,0.00,,---,0.00,VWS V14.01,2013-06-02 00:27:00,
2013-06-01 16:30:00,69.2,35.6,30.06,NW,316,0.0,5.0,29,0.00,,---,0.00,VWS V14.01,2013-06-02 00:30:00,
2013-06-01 16:32:00,69.2,36.5,30.06,NW,316,0.0,3.0,30,0.00,,---,0.00,VWS V14.01,2013-06-02 00:32:00,
2013-06-01 16:33:00,69.2,35.6,30.06,NW,316,3.0,3.0,29,0.00,,---,0.00,VWS V14.01,2013-06-02 00:33:00,
2013-06-01 16:35:00,69.3,35.7,30.06,NW,316,3.0,3.0,29,0.00,,---,0.00,VWS V14.01,2013-06-02 00:35:00,
2013-06-01 16:37:00,69.5,35.0,30.06,WNW,298,2.0,5.0,28,0.00,,---,0.00,VWS V14.01,2013-06-02 00:37:00,
2013-06-01 16:38:00,69.6,36.8,30.06,WSW,239,4.0,5.0,30,0.00,,---,0.00,VWS V14.01,2013-06-02 00:38:00,
2013-06-01 16:40:00,69.8,37.0,30.06,SW,232,2.0,6.0,30,0.00,,---,0.00,VWS V14.01,2013-06-02 00:40:00,
2013-06-01 16:41:00,69.9,35.3,30.05,WSW,241,3.0,6.0,28,0.00,,---,0.00,VWS V14.01,2013-06-02 00:41:00,
2013-06-01 16:43:00,70.0,38.0,30.05,WNW,301,0.0,4.0,31,0.00,,---,0.00,VWS V14.01,2013-06-02 00:43:00,
2013-06-01 16:45:00,70.3,34.8,30.05,WSW,252,0.0,4.0,27,0.00,,---,0.00,VWS V14.01,2013-06-02 00:45:00,
2013-06-01 16:46:00,70.3,36.6,30.05,WSW,252,0.0,0.0,29,0.00,,---,0.00,VWS V14.01,2013-06-02 00:46:00,
2013-06-01 16:48:00,70.4,35.8,30.05,WSW,255,0.0,5.0,28,0.00,,---,0.00,VWS V14.01,2013-06-02 00:48:00,
2013-06-01 16:50:00,70.5,35.9,30.05,SW,215,0.0,5.0,28,0.00,,---,0.00,VWS V14.01,2013-06-02 00:50:00,
2013-06-01 16:51:00,70.6,35.0,30.05,SW,215,0.0,1.0,27,0.00,,---,0.00,VWS V14.01,2013-06-02 00:51:00,
2013-06-01 16:53:00,70.7,35.1,30.05,SW,215,0.0,1.0,27,0.00,,---,0.00,VWS V14.01,2013-06-02 00:53:00,
2013-06-01 16:55:00,70.8,34.2,30.05,West,271,0.0,4.0,26,0.00,,---,0.00,VWS V14.01,2013-06-02 00:55:00,
2013-06-01 16:57:00,70.8,36.1,30.05,NW,311,0.0,3.0,28,0.00,,---,0.00,VWS V14.01,2013-06-02 00:57:00,
2013-06-01 16:58:00,70.8,34.2,30.05,NW,311,0.0,3.0,26,0.00,,---,0.00,VWS V14.01,2013-06-02 00:58:00,
2013-06-01 17:01:00,70.8,36.1,30.05,WNW,296,0.0,7.0,28,0.00,,---,0.00,VWS V14.01,2013-06-02 01:01:00,
2013-06-01 17:02:00,70.9,35.3,30.05,WNW,296,0.0,1.0,27,0.00,,---,0.00,VWS V14.01,2013-06-02 01:02:00,
2013-06-01 17:04:00,71.0,34.4,30.05,WNW,296,0.0,4.0,26,0.00,,---,0.00,VWS V14.01,2013-06-02 01:04:00,
2013-06-01 17:06:00,71.2,36.5,30.05,West,263,1.0,4.0,28,0.00,,---,0.00,VWS V14.01,2013-06-02 01:06:00,
2013-06-01 17:07:00,71.2,36.5,30.05,SSW,196,0.0,4.0,28,0.00,,---,0.00,VWS V14.01,2013-06-02 01:07:00,
2013-06-01 17:09:00,71.4,36.6,30.05,WNW,297,2.0,5.0,28,0.00,,---,0.00,VWS V14.01,2013-06-02 01:09:00,
2013-06-01 17:10:00,71.4,34.8,30.05,NW,309,1.0,5.0,26,0.00,,---,0.00,VWS V14.01,2013-06-02 01:10:00,
2013-06-01 17:11:00,71.4,36.6,30.05,West,265,2.0,6.0,28,0.00,,---,0.00,VWS V14.01,2013-06-02 01:11:00,
2013-06-01 17:12:00,71.3,35.6,30.05,WSW,248,4.0,5.0,27,0.00,,---,0.00,VWS V14.01,2013-06-02 01:12:00,
2013-06-01 17:13:00,71.3,33.7,30.05,West,259,0.0,5.0,25,0.00,,---,0.00,VWS V14.01,2013-06-02 01:13:00,
2013-06-01 17:14:00,71.3,34.7,30.05,West,259,1.0,5.0,26,0.00,,---,0.00,VWS V14.01,2013-06-02 01:14:00,
2013-06-01 17:15:00,71.3,35.6,30.05,West,259,0.0,5.0,27,0.00,,---,0.00,VWS V14.01,2013-06-02 01:15:00,
2013-06-01 17:16:00,71.4,36.6,30.05,South,176,0.0,5.0,28,0.00,,---,0.00,VWS V14.01,2013-06-02 01:16:00,
2013-06-01 17:17:00,71.5,34.8,30.05,SSW,196,0.0,5.0,26,0.00,,---,0.00,VWS V14.01,2013-06-02 01:17:00,
2013-06-01 17:18:00,71.5,34.8,30.05,SSW,196,0.0,5.0,26,0.00,,---,0.00,VWS V14.01,2013-06-02 01:18:00,
2013-06-01 17:20:00,71.7,33.0,30.05,SSW,206,0.0,5.0,24,0.00,,---,0.00,VWS V14.01,2013-06-02 01:20:00,
2013-06-01 17:21:00,71.7,34.0,30.05,SSW,206,0.0,5.0,25,0.00,,---,0.00,VWS V14.01,2013-06-02 01:21:00,
2013-06-01 17:23:00,71.8,32.0,30.04,SSW,206,0.0,2.0,23,0.00,,---,0.00,VWS V14.01,2013-06-02 01:23:00,
2013-06-01 17:25:00,71.8,34.1,30.04,SSW,206,2.0,2.0,25,0.00,,---,0.00,VWS V14.01,2013-06-02 01:25:00,
2013-06-01 17:26:00,71.8,33.1,30.04,SSW,206,1.0,1.0,24,0.00,,---,0.00,VWS V14.01,2013-06-02 01:26:00,
2013-06-01 17:28:00,71.8,34.1,30.05,SSW,206,0.0,3.0,25,0.00,,---,0.00,VWS V14.01,2013-06-02 01:28:00,
2013-06-01 17:30:00,71.8,34.1,30.04,SSW,206,0.0,3.0,25,0.00,,---,0.00,VWS V14.01,2013-06-02 01:30:00,
2013-06-01 17:31:00,71.8,37.0,30.05,SSW,206,1.0,3.0,28,0.00,,---,0.00,VWS V14.01,2013-06-02 01:31:00,
2013-06-01 17:34:00,71.7,35.0,30.04,WNW,303,1.0,6.0,26,0.00,,---,0.00,VWS V14.01,2013-06-02 01:34:00,
2013-06-01 17:35:00,71.7,37.8,30.04,WNW,288,0.0,6.0,29,0.00,,---,0.00,VWS V14.01,2013-06-02 01:35:00,
2013-06-01 17:36:00,71.6,35.9,30.04,WNW,286,4.0,4.0,27,0.00,,---,0.00,VWS V14.01,2013-06-02 01:36:00,
2013-06-01 17:39:00,71.5,36.7,30.04,WNW,295,2.0,6.0,28,0.00,,---,0.00,VWS V14.01,2013-06-02 01:39:00,
2013-06-01 17:41:00,71.4,35.7,30.04,WNW,298,0.0,6.0,27,0.00,,---,0.00,VWS V14.01,2013-06-02 01:41:00,
2013-06-01 17:42:00,71.3,34.7,30.04,WNW,301,1.0,3.0,26,0.00,,---,0.00,VWS V14.01,2013-06-02 01:42:00,
2013-06-01 17:44:00,71.0,35.4,30.04,WNW,285,1.0,5.0,27,0.00,,---,0.00,VWS V14.01,2013-06-02 01:44:00,
2013-06-01 17:46:00,70.9,37.1,30.04,WNW,290,0.0,5.0,29,0.00,,---,0.00,VWS V14.01,2013-06-02 01:46:00,
2013-06-01 17:47:00,71.0,36.3,30.04,WNW,290,0.0,1.0,28,0.00,,---,0.00,VWS V14.01,2013-06-02 01:47:00,
2013-06-01 17:49:00,71.0,36.3,30.04,West,275,0.0,4.0,28,0.00,,---,0.00,VWS V14.01,2013-06-02 01:49:00,
2013-06-01 17:51:00,71.1,34.5,30.04,West,276,2.0,5.0,26,0.00,,---,0.00,VWS V14.01,2013-06-02 01:51:00,
2013-06-01 17:52:00,71.1,35.5,30.04,West,276,0.0,4.0,27,0.00,,---,0.00,VWS V14.01,2013-06-02 01:52:00,
2013-06-01 17:54:00,71.1,34.5,30.04,NW,312,0.0,4.0,26,0.00,,---,0.00,VWS V14.01,2013-06-02 01:54:00,
2013-06-01 17:55:00,71.0,34.4,30.04,WNW,282,2.0,6.0,26,0.00,,---,0.00,VWS V14.01,2013-06-02 01:55:00,
2013-06-01 17:56:00,70.9,34.3,30.04,SW,222,0.0,6.0,26,0.00,,---,0.00,VWS V14.01,2013-06-02 01:56:00,
2013-06-01 17:57:00,70.9,34.3,30.04,SW,222,0.0,3.0,26,0.00,,---,0.00,VWS V14.01,2013-06-02 01:57:00,
2013-06-01 17:59:00,71.0,35.4,30.04,WSW,255,2.0,3.0,27,0.00,,---,0.00,VWS V14.01,2013-06-02 01:59:00,
2013-06-01 18:00:00,71.0,34.4,30.04,WNW,296,3.0,4.0,26,0.00,,---,0.00,VWS V14.01,2013-06-02 02:00:00,
2013-06-01 18:01:00,70.9,34.3,30.04,NW,304,1.0,1.0,26,0.00,,---,0.00,VWS V14.01,2013-06-02 02:01:00,
2013-06-01 18:02:00,70.8,34.2,30.04,NW,304,3.0,3.0,26,0.00,,---,0.00,VWS V14.01,2013-06-02 02:02:00,
2013-06-01 18:04:00,70.5,34.9,30.04,West,275,4.0,4.0,27,0.00,,---,0.00,VWS V14.01,2013-06-02 02:04:00,
2013-06-01 18:05:00,70.3,34.8,30.04,West,263,0.0,4.0,27,0.00,,---,0.00,VWS V14.01,2013-06-02 02:05:00,
2013-06-01 18:07:00,70.2,33.7,30.03,West,273,0.0,7.0,26,0.00,,---,0.00,VWS V14.01,2013-06-02 02:07:00,
2013-06-01 18:09:00,70.3,35.7,30.03,West,267,0.0,7.0,28,0.00,,---,0.00,VWS V14.01,2013-06-02 02:09:00,
2013-06-01 18:10:00,70.3,34.8,30.03,West,274,3.0,7.0,27,0.00,,---,0.00,VWS V14.01,2013-06-02 02:10:00,
2013-06-01 18:12:00,70.3,35.7,30.03,West,267,0.0,4.0,28,0.00,,---,0.00,VWS V14.01,2013-06-02 02:12:00,
2013-06-01 18:14:00,70.4,33.9,30.03,WNW,292,4.0,7.0,26,0.00,,---,0.00,VWS V14.01,2013-06-02 02:14:00,
2013-06-01 18:16:00,70.4,36.7,30.03,West,270,0.0,2.0,29,0.00,,---,0.00,VWS V14.01,2013-06-02 02:16:00,
2013-06-01 18:17:00,70.4,37.5,30.03,West,277,0.0,3.0,30,0.00,,---,0.00,VWS V14.01,2013-06-02 02:17:00,
2013-06-01 18:18:00,70.5,36.7,30.03,West,281,1.0,5.0,29,0.00,,---,0.00,VWS V14.01,2013-06-02 02:18:00,
2013-06-01 18:20:00,70.4,36.7,30.03,NW,314,4.0,5.0,29,0.00,,---,0.00,VWS V14.01,2013-06-02 02:20:00,
2013-06-01 18:21:00,70.2,36.5,30.03,NW,317,4.0,5.0,29,0.00,,---,0.00,VWS V14.01,2013-06-02 02:21:00,
2013-06-01 18:22:00,70.2,37.3,30.03,West,274,0.0,5.0,30,0.00,,---,0.00,VWS V14.01,2013-06-02 02:22:00,
2013-06-01 18:23:00,70.1,36.4,30.03,NW,323,3.0,5.0,29,0.00,,---,0.00,VWS V14.01,2013-06-02 02:23:00,
2013-06-01 18:25:00,70.0,34.5,30.03,NW,306,1.0,5.0,27,0.00,,---,0.00,VWS V14.01,2013-06-02 02:25:00,
2013-06-01 18:26:00,70.0,36.3,30.03,NW,317,2.0,5.0,29,0.00,,---,0.00,VWS V14.01,2013-06-02 02:26:00,
2013-06-01 18:27:00,69.9,35.3,30.03,NW,309,4.0,5.0,28,0.00,,---,0.00,VWS V14.01,2013-06-02 02:27:00,
2013-06-01 18:28:00,69.9,35.3,30.03,WNW,299,3.0,5.0,28,0.00,,---,0.00,VWS V14.01,2013-06-02 02:28:00,
2013-06-01 18:30:00,69.9,34.4,30.03,WNW,294,0.0,5.0,27,0.00,,---,0.00,VWS V14.01,2013-06-02 02:30:00,
2013-06-01 18:31:00,69.9,35.3,30.03,NW,321,6.0,6.0,28,0.00,,---,0.00,VWS V14.01,2013-06-02 02:31:00,
2013-06-01 18:32:00,69.8,35.3,30.03,WNW,296,3.0,6.0,28,0.00,,---,0.00,VWS V14.01,2013-06-02 02:32:00,
2013-06-01 18:33:00,69.7,35.2,30.03,WNW,287,3.0,6.0,28,0.00,,---,0.00,VWS V14.01,2013-06-02 02:33:00,
2013-06-01 18:35:00,69.4,35.8,30.03,NW,319,0.0,6.0,29,0.00,,---,0.00,VWS V14.01,2013-06-02 02:35:00,
2013-06-01 18:37:00,69.3,35.7,30.03,NW,310,4.0,6.0,29,0.00,,---,0.00,VWS V14.01,2013-06-02 02:37:00,
2013-06-01 18:38:00,69.3,36.6,30.03,WNW,299,1.0,6.0,30,0.00,,---,0.00,VWS V14.01,2013-06-02 02:38:00,
2013-06-01 18:40:00,69.4,35.8,30.03,NW,305,3.0,7.0,29,0.00,,---,0.00,VWS V14.01,2013-06-02 02:40:00,
2013-06-01 18:42:00,69.4,34.9,30.03,NNW,329,3.0,4.0,28,0.00,,---,0.00,VWS V14.01,2013-06-02 02:42:00,
2013-06-01 18:43:00,69.2,34.7,30.03,NNW,332,2.0,5.0,28,0.00,,---,0.00,VWS V14.01,2013-06-02 02:43:00,
2013-06-01 18:46:00,69.0,36.3,30.03,WNW,292,0.0,7.0,30,0.00,,---,0.00,VWS V14.01,2013-06-02 02:46:00,
2013-06-01 18:47:00,69.1,35.5,30.03,NW,315,1.0,4.0,29,0.00,,---,0.00,VWS V14.01,2013-06-02 02:47:00,
2013-06-01 18:48:00,69.2,36.5,30.03,NW,325,4.0,4.0,30,0.00,,---,0.00,VWS V14.01,2013-06-02 02:48:00,
2013-06-01 18:51:00,69.4,36.7,30.03,WNW,283,1.0,5.0,30,0.00,,---,0.00,VWS V14.01,2013-06-02 02:51:00,
2013-06-01 18:52:00,69.5,36.7,30.03,West,267,4.0,5.0,30,0.00,,---,0.00,VWS V14.01,2013-06-02 02:52:00,
2013-06-01 18:53:00,69.5,35.9,30.03,WSW,253,1.0,5.0,29,0.00,,---,0.00,VWS V14.01,2013-06-02 02:53:00,
2013-06-01 18:54:00,69.6,36.0,30.03,SW,232,2.0,6.0,29,0.00,,---,0.00,VWS V14.01,2013-06-02 02:54:00,
2013-06-01 18:56:00,69.9,36.2,30.03,SSW,212,2.0,6.0,29,0.00,,---,0.00,VWS V14.01,2013-06-02 02:56:00,
2013-06-01 18:58:00,70.1,36.4,30.03,SW,233,0.0,4.0,29,0.00,,---,0.00,VWS V14.01,2013-06-02 02:58:00,
2013-06-01 18:59:00,70.3,36.6,30.03,SW,233,0.0,4.0,29,0.00,,---,0.00,VWS V14.01,2013-06-02 02:59:00,
2013-06-01 19:01:00,70.5,36.7,30.03,NW,322,3.0,5.0,29,0.00,,---,0.00,VWS V14.01,2013-06-02 03:01:00,
2013-06-01 19:03:00,70.5,36.7,30.03,WSW,240,3.0,5.0,29,0.00,,---,0.00,VWS V14.01,2013-06-02 03:03:00,
2013-06-01 19:04:00,70.4,35.8,30.03,WSW,255,1.0,6.0,28,0.00,,---,0.00,VWS V14.01,2013-06-02 03:04:00,
2013-06-01 19:06:00,70.4,36.7,30.03,West,277,1.0,6.0,29,0.00,,---,0.00,VWS V14.01,2013-06-02 03:06:00,
2013-06-01 19:08:00,70.4,37.5,30.03,West,279,2.0,2.0,30,0.00,,---,0.00,VWS V14.01,2013-06-02 03:08:00,
2013-06-01 19:09:00,70.4,37.5,30.03,West,277,0.0,2.0,30,0.00,,---,0.00,VWS V14.01,2013-06-02 03:09:00,
2013-06-01 19:11:00,70.6,36.8,30.02,SW,223,6.0,6.0,29,0.00,,---,0.00,VWS V14.01,2013-06-02 03:11:00,
2013-06-01 19:14:00,70.8,37.0,30.02,WSW,248,4.0,6.0,29,0.00,,---,0.00,VWS V14.01,2013-06-02 03:14:00,
2013-06-01 19:16:00,70.8,37.0,30.02,WSW,248,4.0,5.0,29,0.00,,---,0.00,VWS V14.01,2013-06-02 03:16:00,
2013-06-01 19:19:00,70.8,37.0,30.02,WSW,257,0.0,7.0,29,0.00,,---,0.00,VWS V14.01,2013-06-02 03:19:00,
2013-06-01 19:20:00,70.8,37.9,30.02,West,264,1.0,7.0,30,0.00,,---,0.00,VWS V14.01,2013-06-02 03:20:00,
2013-06-01 19:21:00,71.0,38.0,30.02,West,264,0.0,0.0,30,0.00,,---,0.00,VWS V14.01,2013-06-02 03:21:00,
2013-06-01 19:24:00,71.0,37.2,30.02,WNW,286,1.0,4.0,29,0.00,,---,0.00,VWS V14.01,2013-06-02 03:24:00,
2013-06-01 19:25:00,71.0,36.3,30.02,WNW,298,2.0,4.0,28,0.00,,---,0.00,VWS V14.01,2013-06-02 03:25:00,
2013-06-01 19:26:00,70.8,37.9,30.02,West,267,3.0,4.0,30,0.00,,---,0.00,VWS V14.01,2013-06-02 03:26:00,
2013-06-01 19:29:00,70.6,36.8,30.02,West,277,4.0,4.0,29,0.00,,---,0.00,VWS V14.01,2013-06-02 03:29:00,
2013-06-01 19:30:00,70.5,35.9,30.02,NW,313,3.0,4.0,28,0.00,,---,0.00,VWS V14.01,2013-06-02 03:30:00,
2013-06-01 19:32:00,70.3,35.7,30.02,West,277,0.0,3.0,28,0.00,,---,0.00,VWS V14.01,2013-06-02 03:32:00,
2013-06-01 19:34:00,70.1,36.4,30.02,West,277,1.0,3.0,29,0.00,,---,0.00,VWS V14.01,2013-06-02 03:34:00,
2013-06-01 19:35:00,70.1,37.3,30.02,NW,307,1.0,4.0,30,0.00,,---,0.00,VWS V14.01,2013-06-02 03:35:00,
2013-06-01 19:37:00,70.0,36.3,30.02,NW,306,2.0,4.0,29,0.00,,---,0.00,VWS V14.01,2013-06-02 03:37:00,
2013-06-01 19:39:00,69.8,36.1,30.02,NW,304,2.0,5.0,29,0.00,,---,0.00,VWS V14.01,2013-06-02 03:39:00,
2013-06-01 19:40:00,69.7,36.0,30.02,NNW,327,3.0,5.0,29,0.00,,---,0.00,VWS V14.01,2013-06-02 03:40:00,
2013-06-01 19:42:00,69.7,36.0,30.02,West,268,0.0,4.0,29,0.00,,---,0.00,VWS V14.01,2013-06-02 03:42:00,
2013-06-01 19:44:00,69.6,35.1,30.02,West,281,3.0,4.0,28,0.00,,---,0.00,VWS V14.01,2013-06-02 03:44:00,
2013-06-01 19:45:00,69.6,35.1,30.02,WNW,290,0.0,4.0,28,0.00,,---,0.00,VWS V14.01,2013-06-02 03:45:00,
2013-06-01 19:46:00,69.6,36.0,30.02,NW,315,3.0,4.0,29,0.00,,---,0.00,VWS V14.01,2013-06-02 03:46:00,
2013-06-01 19:47:00,69.6,36.0,30.02,NW,317,2.0,2.0,29,0.00,,---,0.00,VWS V14.01,2013-06-02 03:47:00,
2013-06-01 19:49:00,69.5,35.9,30.02,West,271,2.0,4.0,29,0.00,,---,0.00,VWS V14.01,2013-06-02 03:49:00,
2013-06-01 19:50:00,69.5,35.9,30.02,West,273,4.0,4.0,29,0.00,,---,0.00,VWS V14.01,2013-06-02 03:50:00,
2013-06-01 19:51:00,69.5,35.9,30.02,West,273,1.0,4.0,29,0.00,,---,0.00,VWS V14.01,2013-06-02 03:51:00,
2013-06-01 19:52:00,69.5,35.0,30.02,NW,315,2.0,5.0,28,0.00,,---,0.00,VWS V14.01,2013-06-02 03:52:00,
2013-06-01 19:54:00,69.4,35.8,30.02,WNW,298,3.0,5.0,29,0.00,,---,0.00,VWS V14.01,2013-06-02 03:54:00,
2013-06-01 19:55:00,69.3,35.7,30.02,WNW,295,3.0,5.0,29,0.00,,---,0.00,VWS V14.01,2013-06-02 03:55:00,
2013-06-01 19:56:00,69.3,34.8,30.02,West,281,3.0,3.0,28,0.00,,---,0.00,VWS V14.01,2013-06-02 03:56:00,
2013-06-01 19:57:00,69.2,35.6,30.02,WNW,284,1.0,4.0,29,0.00,,---,0.00,VWS V14.01,2013-06-02 03:57:00,
2013-06-01 19:59:00,69.1,35.5,30.02,WNW,285,2.0,4.0,29,0.00,,---,0.00,VWS V14.01,2013-06-02 03:59:00,
2013-06-01 20:00:00,69.1,35.5,30.02,West,268,1.0,4.0,29,0.00,,---,0.00,VWS V14.01,2013-06-02 04:00:00,
2013-06-01 20:01:00,69.0,35.5,30.02,West,272,2.0,5.0,29,0.00,,---,0.00,VWS V14.01,2013-06-02 04:01:00,
2013-06-01 20:06:00,69.1,35.5,30.02,WNW,290,0.0,5.0,29,0.00,,---,0.00,VWS V14.01,2013-06-02 04:06:00,
2013-06-01 20:07:00,69.1,35.5,30.02,West,276,0.0,4.0,29,0.00,,---,0.00,VWS V14.01,2013-06-02 04:07:00,
2013-06-01 20:11:00,69.0,35.5,30.02,WNW,283,0.0,5.0,29,0.00,,---,0.00,VWS V14.01,2013-06-02 04:11:00,
2013-06-01 20:12:00,69.0,35.5,30.02,West,265,3.0,3.0,29,0.00,,---,0.00,VWS V14.01,2013-06-02 04:12:00,
2013-06-01 20:16:00,68.9,35.4,30.02,WSW,257,0.0,7.0,29,0.00,,---,0.00,VWS V14.01,2013-06-02 04:16:00,
2013-06-01 20:17:00,68.9,35.4,30.02,West,267,0.0,3.0,29,0.00,,---,0.00,VWS V14.01,2013-06-02 04:17:00,
2013-06-01 20:21:00,68.8,36.1,30.02,West,271,0.0,5.0,30,0.00,,---,0.00,VWS V14.01,2013-06-02 04:21:00,
2013-06-01 20:22:00,68.8,36.1,30.01,West,272,2.0,2.0,30,0.00,,---,0.00,VWS V14.01,2013-06-02 04:22:00,
2013-06-01 20:23:00,68.8,35.3,30.01,West,279,0.0,4.0,29,0.00,,---,0.00,VWS V14.01,2013-06-02 04:23:00,
2013-06-01 20:26:00,68.7,35.2,30.01,WNW,293,1.0,5.0,29,0.00,,---,0.00,VWS V14.01,2013-06-02 04:26:00,
2013-06-01 20:27:00,68.7,36.0,30.02,WSW,244,0.0,4.0,30,0.00,,---,0.00,VWS V14.01,2013-06-02 04:27:00,
2013-06-01 20:28:00,68.7,36.0,30.01,WSW,244,0.0,4.0,30,0.00,,---,0.00,VWS V14.01,2013-06-02 04:28:00,
2013-06-01 20:31:00,68.7,35.2,30.02,West,259,0.0,6.0,29,0.00,,---,0.00,VWS V14.01,2013-06-02 04:31:00,
2013-06-01 20:32:00,68.7,36.0,30.01,NW,311,1.0,3.0,30,0.00,,---,0.00,VWS V14.01,2013-06-02 04:32:00,
2013-06-01 20:33:00,68.7,36.9,30.01,NW,310,0.0,3.0,31,0.00,,---,0.00,VWS V14.01,2013-06-02 04:33:00,
2013-06-01 20:36:00,68.7,36.0,30.01,WNW,302,2.0,5.0,30,0.00,,---,0.00,VWS V14.01,2013-06-02 04:36:00,
2013-06-01 20:37:00,68.6,36.0,30.01,WNW,296,1.0,4.0,30,0.00,,---,0.00,VWS V14.01,2013-06-02 04:37:00,
2013-06-01 20:38:00,68.6,36.0,30.01,WNW,294,3.0,4.0,30,0.00,,---,0.00,VWS V14.01,2013-06-02 04:38:00,
2013-06-01 20:41:00,68.3,35.7,30.01,WNW,297,1.0,4.0,30,0.00,,---,0.00,VWS V14.01,2013-06-02 04:41:00,
2013-06-01 20:43:00,68.2,35.6,30.01,WNW,286,3.0,4.0,30,0.00,,---,0.00,VWS V14.01,2013-06-02 04:43:00,
2013-06-01 20:47:00,68.2,36.4,30.01,West,265,0.0,3.0,31,0.00,,---,0.00,VWS V14.01,2013-06-02 04:47:00,
2013-06-01 20:48:00,68.1,35.5,30.01,NW,304,3.0,4.0,30,0.00,,---,0.00,VWS V14.01,2013-06-02 04:48:00,
2013-06-01 20:52:00,68.0,36.3,30.01,WNW,296,4.0,4.0,31,0.00,,---,0.00,VWS V14.01,2013-06-02 04:52:00,
2013-06-01 20:53:00,67.9,36.2,30.01,NW,326,4.0,4.0,31,0.00,,---,0.00,VWS V14.01,2013-06-02 04:53:00,
2013-06-01 20:54:00,67.9,36.2,30.01,NW,304,3.0,7.0,31,0.00,,---,0.00,VWS V14.01,2013-06-02 04:54:00,
2013-06-01 20:57:00,67.5,36.6,30.01,WNW,301,0.0,1.0,32,0.00,,---,0.00,VWS V14.01,2013-06-02 04:57:00,
2013-06-01 20:58:00,67.5,35.8,30.01,WNW,289,1.0,5.0,31,0.00,,---,0.00,VWS V14.01,2013-06-02 04:58:00,
2013-06-01 20:59:00,67.4,35.7,30.01,WNW,294,3.0,5.0,31,0.00,,---,0.00,VWS V14.01,2013-06-02 04:59:00,
2013-06-01 21:02:00,67.3,36.5,30.01,NW,305,1.0,6.0,32,0.00,,---,0.00,VWS V14.01,2013-06-02 05:02:00,
2013-06-01 21:04:00,67.2,36.4,30.01,West,277,2.0,6.0,32,0.00,,---,0.00,VWS V14.01,2013-06-02 05:04:00,
2013-06-01 21:05:00,67.1,36.3,30.01,WNW,293,1.0,8.0,32,0.00,,---,0.00,VWS V14.01,2013-06-02 05:05:00,
2013-06-01 21:07:00,66.9,36.9,30.01,WNW,294,1.0,5.0,33,0.00,,---,0.00,VWS V14.01,2013-06-02 05:07:00,
2013-06-01 21:09:00,66.7,35.9,30.01,NW,313,1.0,6.0,32,0.00,,---,0.00,VWS V14.01,2013-06-02 05:09:00,
2013-06-01 21:10:00,66.6,35.8,30.01,WNW,302,0.0,6.0,32,0.00,,---,0.00,VWS V14.01,2013-06-02 05:10:00,
2013-06-01 21:13:00,66.3,36.4,30.01,WNW,292,2.0,4.0,33,0.00,,---,0.00,VWS V14.01,2013-06-02 05:13:00,
2013-06-01 21:14:00,66.2,36.3,30.01,WNW,294,0.0,4.0,33,0.00,,---,0.00,VWS V14.01,2013-06-02 05:14:00,
2013-06-01 21:15:00,66.1,36.2,30.01,NW,305,2.0,5.0,33,0.00,,---,0.00,VWS V14.01,2013-06-02 05:15:00,
2013-06-01 21:18:00,65.9,35.2,30.01,NW,309,0.0,4.0,32,0.00,,---,0.00,VWS V14.01,2013-06-02 05:18:00,
2013-06-01 21:19:00,65.9,36.0,30.01,WNW,285,3.0,5.0,33,0.00,,---,0.00,VWS V14.01,2013-06-02 05:19:00,
2013-06-01 21:20:00,65.9,36.0,30.01,NW,313,1.0,5.0,33,0.00,,---,0.00,VWS V14.01,2013-06-02 05:20:00,
2013-06-01 21:21:00,65.8,35.9,30.01,West,269,2.0,5.0,33,0.00,,---,0.00,VWS V14.01,2013-06-02 05:21:00,
2013-06-01 21:23:00,65.8,35.9,30.01,NW,319,5.0,5.0,33,0.00,,---,0.00,VWS V14.01,2013-06-02 05:23:00,
2013-06-01 21:25:00,65.7,35.8,30.01,West,272,0.0,6.0,33,0.00,,---,0.00,VWS V14.01,2013-06-02 05:25:00,
2013-06-01 21:26:00,65.7,35.1,30.01,WNW,288,3.0,6.0,32,0.00,,---,0.00,VWS V14.01,2013-06-02 05:26:00,
2013-06-01 21:28:00,65.6,35.0,30.01,NW,304,0.0,7.0,32,0.00,,---,0.00,VWS V14.01,2013-06-02 05:28:00,
2013-06-01 21:30:00,65.4,36.3,30.01,West,281,3.0,7.0,34,0.00,,---,0.00,VWS V14.01,2013-06-02 05:30:00,
2013-06-01 21:31:00,65.4,35.6,30.01,West,274,2.0,7.0,33,0.00,,---,0.00,VWS V14.01,2013-06-02 05:31:00,
2013-06-01 21:33:00,65.3,35.5,30.01,WNW,301,0.0,5.0,33,0.00,,---,0.00,VWS V14.01,2013-06-02 05:33:00,
2013-06-01 21:35:00,65.2,35.4,30.01,WNW,296,1.0,5.0,33,0.00,,---,0.00,VWS V14.01,2013-06-02 05:35:00,
2013-06-01 21:36:00,65.2,35.4,30.01,WNW,290,0.0,7.0,33,0.00,,---,0.00,VWS V14.01,2013-06-02 05:36:00,
2013-06-01 21:38:00,65.1,35.3,30.01,WNW,296,0.0,4.0,33,0.00,,---,0.00,VWS V14.01,2013-06-02 05:38:00,
2013-06-01 21:40:00,64.9,35.1,30.00,WNW,297,2.0,5.0,33,0.00,,---,0.00,VWS V14.01,2013-06-02 05:40:00,
2013-06-01 21:41:00,64.9,35.1,30.01,WNW,288,0.0,1.0,33,0.00,,---,0.00,VWS V14.01,2013-06-02 05:41:00,
2013-06-01 21:42:00,64.9,35.1,30.01,WNW,288,0.0,2.0,33,0.00,,---,0.00,VWS V14.01,2013-06-02 05:42:00,
2013-06-01 21:43:00,64.8,35.0,30.01,WSW,247,2.0,5.0,33,0.00,,---,0.00,VWS V14.01,2013-06-02 05:43:00,
2013-06-01 21:45:00,64.8,35.0,30.01,WNW,297,2.0,6.0,33,0.00,,---,0.00,VWS V14.01,2013-06-02 05:45:00,
2013-06-01 21:46:00,64.7,35.0,30.01,North,355,4.0,6.0,33,0.00,,---,0.00,VWS V14.01,2013-06-02 05:46:00,
2013-06-01 21:47:00,64.7,35.0,30.01,WNW,300,1.0,2.0,33,0.00,,---,0.00,VWS V14.01,2013-06-02 05:47:00,
2013-06-01 21:48:00,64.6,34.9,30.00,West,279,3.0,6.0,33,0.00,,---,0.00,VWS V14.01,2013-06-02 05:48:00,
2013-06-01 21:50:00,64.6,35.6,30.00,WNW,298,1.0,6.0,34,0.00,,---,0.00,VWS V14.01,2013-06-02 05:50:00,
2013-06-01 21:51:00,64.6,35.6,30.00,WNW,298,0.0,6.0,34,0.00,,---,0.00,VWS V14.01,2013-06-02 05:51:00,
2013-06-01 21:52:00,64.6,35.6,30.00,NW,304,1.0,3.0,34,0.00,,---,0.00,VWS V14.01,2013-06-02 05:52:00,
2013-06-01 21:54:00,64.5,36.3,30.00,West,281,0.0,6.0,35,0.00,,---,0.00,VWS V14.01,2013-06-02 05:54:00,
2013-06-01 21:55:00,64.4,35.5,30.00,WNW,294,0.0,6.0,34,0.00,,---,0.00,VWS V14.01,2013-06-02 05:55:00,
2013-06-01 21:56:00,64.4,34.7,30.00,WNW,292,4.0,6.0,33,0.00,,---,0.00,VWS V14.01,2013-06-02 05:56:00,
2013-06-01 21:57:00,64.4,34.7,30.00,WNW,290,1.0,5.0,33,0.00,,---,0.00,VWS V14.01,2013-06-02 05:57:00,
2013-06-01 21:58:00,64.3,35.4,30.00,WNW,300,0.0,7.0,34,0.00,,---,0.00,VWS V14.01,2013-06-02 05:58:00,
2013-06-01 21:59:00,64.2,36.0,30.00,WNW,287,2.0,7.0,35,0.00,,---,0.00,VWS V14.01,2013-06-02 05:59:00,
2013-06-01 22:00:00,64.1,35.9,30.00,WNW,292,5.0,7.0,35,0.00,,---,0.00,VWS V14.01,2013-06-02 06:00:00,
2013-06-01 22:01:00,64.0,35.1,30.00,West,273,0.0,7.0,34,0.00,,---,0.00,VWS V14.01,2013-06-02 06:01:00,
2013-06-01 22:02:00,63.9,35.7,30.00,WNW,288,0.0,4.0,35,0.00,,---,0.00,VWS V14.01,2013-06-02 06:02:00,
2013-06-01 22:03:00,63.9,35.7,30.00,WNW,288,0.0,4.0,35,0.00,,---,0.00,VWS V14.01,2013-06-02 06:03:00,
2013-06-01 22:04:00,63.8,35.7,30.00,WNW,293,0.0,4.0,35,0.00,,---,0.00,VWS V14.01,2013-06-02 06:04:00,
2013-06-01 22:05:00,63.7,35.6,30.00,WNW,290,0.0,5.0,35,0.00,,---,0.00,VWS V14.01,2013-06-02 06:05:00,
2013-06-01 22:07:00,63.6,35.5,30.00,WNW,286,4.0,4.0,35,0.00,,---,0.00,VWS V14.01,2013-06-02 06:07:00,
2013-06-01 22:08:00,63.5,36.1,30.00,WNW,288,2.0,4.0,36,0.00,,---,0.00,VWS V14.01,2013-06-02 06:08:00,
2013-06-01 22:09:00,63.4,36.0,30.00,WNW,289,4.0,5.0,36,0.00,,---,0.00,VWS V14.01,2013-06-02 06:09:00,
2013-06-01 22:11:00,63.2,36.5,30.00,WNW,291,0.0,5.0,37,0.00,,---,0.00,VWS V14.01,2013-06-02 06:11:00,
2013-06-01 22:12:00,63.1,36.4,30.00,WNW,295,0.0,3.0,37,0.00,,---,0.00,VWS V14.01,2013-06-02 06:12:00,
2013-06-01 22:13:00,63.0,36.3,30.00,WNW,294,0.0,3.0,37,0.00,,---,0.00,VWS V14.01,2013-06-02 06:13:00,
2013-06-01 22:14:00,62.9,36.2,30.00,WNW,290,1.0,3.0,37,0.00,,---,0.00,VWS V14.01,2013-06-02 06:14:00,
2013-06-01 22:16:00,62.8,36.2,30.00,WNW,292,0.0,3.0,37,0.00,,---,0.00,VWS V14.01,2013-06-02 06:16:00,
2013-06-01 22:17:00,62.7,36.1,30.00,WNW,293,0.0,2.0,37,0.00,,---,0.00,VWS V14.01,2013-06-02 06:17:00,
2013-06-01 22:18:00,62.7,36.8,30.00,West,275,2.0,2.0,38,0.00,,---,0.00,VWS V14.01,2013-06-02 06:18:00,
2013-06-01 22:19:00,62.7,36.8,30.00,West,262,0.0,5.0,38,0.00,,---,0.00,VWS V14.01,2013-06-02 06:19:00,
2013-06-01 22:21:00,62.5,36.6,30.00,West,281,0.0,0.0,38,0.00,,---,0.00,VWS V14.01,2013-06-02 06:21:00,
2013-06-01 22:22:00,62.4,36.5,30.00,West,281,0.0,1.0,38,0.00,,---,0.00,VWS V14.01,2013-06-02 06:22:00,
2013-06-01 22:23:00,62.4,36.5,30.00,West,281,0.0,1.0,38,0.00,,---,0.00,VWS V14.01,2013-06-02 06:23:00,
2013-06-01 22:24:00,62.4,36.5,30.00,West,281,0.0,1.0,38,0.00,,---,0.00,VWS V14.01,2013-06-02 06:24:00,
2013-06-01 22:25:00,62.3,36.4,30.00,West,279,2.0,3.0,38,0.00,,---,0.00,VWS V14.01,2013-06-02 06:25:00,
2013-06-01 22:27:00,62.2,37.0,30.00,WNW,288,0.0,1.0,39,0.00,,---,0.00,VWS V14.01,2013-06-02 06:27:00,
2013-06-01 22:28:00,62.1,36.9,30.00,West,270,1.0,3.0,39,0.00,,---,0.00,VWS V14.01,2013-06-02 06:28:00,
2013-06-01 22:29:00,62.1,36.9,30.00,West,270,0.0,3.0,39,0.00,,---,0.00,VWS V14.01,2013-06-02 06:29:00,
2013-06-01 22:30:00,62.1,36.9,30.00,West,270,0.0,3.0,39,0.00,,---,0.00,VWS V14.01,2013-06-02 06:30:00,
2013-06-01 22:32:00,61.9,36.7,30.00,West,269,1.0,4.0,39,0.00,,---,0.00,VWS V14.01,2013-06-02 06:32:00,
2013-06-01 22:34:00,61.8,36.6,30.00,West,263,1.0,4.0,39,0.00,,---,0.00,VWS V14.01,2013-06-02 06:34:00,
2013-06-01 22:35:00,61.8,37.2,30.00,West,263,0.0,4.0,40,0.00,,---,0.00,VWS V14.01,2013-06-02 06:35:00,
2013-06-01 22:37:00,61.6,37.1,30.00,West,262,1.0,5.0,40,0.00,,---,0.00,VWS V14.01,2013-06-02 06:37:00,
2013-06-01 22:39:00,61.5,37.0,30.00,West,271,0.0,5.0,40,0.00,,---,0.00,VWS V14.01,2013-06-02 06:39:00,
2013-06-01 22:40:00,61.4,36.9,30.00,West,271,0.0,5.0,40,0.00,,---,0.00,VWS V14.01,2013-06-02 06:40:00,
2013-06-01 22:43:00,61.2,37.3,30.00,WNW,287,0.0,1.0,41,0.00,,---,0.00,VWS V14.01,2013-06-02 06:43:00,
2013-06-01 22:44:00,61.1,37.2,30.00,WNW,287,2.0,2.0,41,0.00,,---,0.00,VWS V14.01,2013-06-02 06:44:00,
2013-06-01 22:45:00,61.1,37.2,30.00,WNW,287,0.0,2.0,41,0.00,,---,0.00,VWS V14.01,2013-06-02 06:45:00,
2013-06-01 22:48:00,60.8,37.6,30.00,West,271,1.0,2.0,42,0.00,,---,0.00,VWS V14.01,2013-06-02 06:48:00,
2013-06-01 22:49:00,60.7,37.5,30.00,West,271,0.0,2.0,42,0.00,,---,0.00,VWS V14.01,2013-06-02 06:49:00,
2013-06-01 22:50:00,60.6,37.4,30.00,West,271,0.0,2.0,42,0.00,,---,0.00,VWS V14.01,2013-06-02 06:50:00,
2013-06-01 22:53:00,60.3,37.7,30.01,West,271,0.0,1.0,43,0.00,,---,0.00,VWS V14.01,2013-06-02 06:53:00,
2013-06-01 22:54:00,60.2,37.6,30.01,West,271,0.0,1.0,43,0.00,,---,0.00,VWS V14.01,2013-06-02 06:54:00,
2013-06-01 22:55:00,60.2,37.6,30.01,West,271,0.0,1.0,43,0.00,,---,0.00,VWS V14.01,2013-06-02 06:55:00,
2013-06-01 22:58:00,59.9,38.0,30.00,West,271,0.0,1.0,44,0.00,,---,0.00,VWS V14.01,2013-06-02 06:58:00,
2013-06-01 22:59:00,59.7,37.8,30.01,West,271,1.0,2.0,44,0.00,,---,0.00,VWS V14.01,2013-06-02 06:59:00,
2013-06-01 23:00:00,59.7,37.8,30.01,West,271,0.0,2.0,44,0.00,,---,0.00,VWS V14.01,2013-06-02 07:00:00,
2013-06-01 23:01:00,59.6,37.7,30.00,West,271,0.0,1.0,44,0.00,,---,0.00,VWS V14.01,2013-06-02 07:01:00,
2013-06-01 23:03:00,59.4,37.5,30.00,West,271,0.0,1.0,44,0.00,,---,0.00,VWS V14.01,2013-06-02 07:03:00,
2013-06-01 23:05:00,59.3,38.0,30.00,West,271,0.0,1.0,45,0.00,,---,0.00,VWS V14.01,2013-06-02 07:05:00,
2013-06-01 23:06:00,59.1,37.8,30.00,NW,311,1.0,3.0,45,0.00,,---,0.00,VWS V14.01,2013-06-02 07:06:00,
2013-06-01 23:08:00,59.0,37.7,30.00,NW,311,0.0,3.0,45,0.00,,---,0.00,VWS V14.01,2013-06-02 07:08:00,
2013-06-01 23:10:00,58.9,37.6,30.00,NW,311,0.0,3.0,45,0.00,,---,0.00,VWS V14.01,2013-06-02 07:10:00,
2013-06-01 23:11:00,58.9,37.6,30.00,NW,311,0.0,3.0,45,0.00,,---,0.00,VWS V14.01,2013-06-02 07:11:00,
2013-06-01 23:12:00,58.9,37.6,30.00,NW,311,2.0,2.0,45,0.00,,---,0.00,VWS V14.01,2013-06-02 07:12:00,
2013-06-01 23:14:00,58.7,38.0,30.01,NW,311,2.0,2.0,46,0.00,,---,0.00,VWS V14.01,2013-06-02 07:14:00,
2013-06-01 23:15:00,58.6,37.9,30.00,NW,311,2.0,5.0,46,0.00,,---,0.00,VWS V14.01,2013-06-02 07:15:00,
2013-06-01 23:16:00,58.6,37.9,30.00,NW,311,3.0,5.0,46,0.00,,---,0.00,VWS V14.01,2013-06-02 07:16:00,
2013-06-01 23:17:00,58.5,37.8,30.00,NW,312,3.0,4.0,46,0.00,,---,0.00,VWS V14.01,2013-06-02 07:17:00,
2013-06-01 23:20:00,58.3,38.2,30.00,NW,308,2.0,4.0,47,0.00,,---,0.00,VWS V14.01,2013-06-02 07:20:00,
2013-06-01 23:21:00,58.2,38.1,30.00,WNW,286,2.0,4.0,47,0.00,,---,0.00,VWS V14.01,2013-06-02 07:21:00,
2013-06-01 23:22:00,58.2,38.1,30.00,WNW,286,0.0,1.0,47,0.00,,---,0.00,VWS V14.01,2013-06-02 07:22:00,
2013-06-01 23:25:00,58.0,37.9,30.00,NW,322,0.0,4.0,47,0.00,,---,0.00,VWS V14.01,2013-06-02 07:25:00,
2013-06-01 23:26:00,57.9,37.8,30.00,NW,310,0.0,4.0,47,0.00,,---,0.00,VWS V14.01,2013-06-02 07:26:00,
2013-06-01 23:27:00,57.8,38.3,30.00,NW,312,2.0,3.0,48,0.00,,---,0.00,VWS V14.01,2013-06-02 07:27:00,
2013-06-01 23:30:00,57.6,38.1,30.00,NW,314,1.0,3.0,48,0.00,,---,0.00,VWS V14.01,2013-06-02 07:30:00,
2013-06-01 23:31:00,57.6,38.1,30.00,NW,314,0.0,3.0,48,0.00,,---,0.00,VWS V14.01,2013-06-02 07:31:00,
2013-06-01 23:33:00,57.4,37.9,30.00,WNW,303,3.0,5.0,48,0.00,,---,0.00,VWS V14.01,2013-06-02 07:33:00,
2013-06-01 23:35:00,57.3,37.8,30.00,NW,314,2.0,5.0,48,0.00,,---,0.00,VWS V14.01,2013-06-02 07:35:00,
2013-06-01 23:36:00,57.2,37.7,30.00,NW,318,3.0,5.0,48,0.00,,---,0.00,VWS V14.01,2013-06-02 07:36:00,
2013-06-01 23:39:00,57.0,38.0,30.00,NW,306,3.0,4.0,49,0.00,,---,0.00,VWS V14.01,2013-06-02 07:39:00,
2013-06-01 23:40:00,56.8,37.9,30.00,NW,309,1.0,4.0,49,0.00,,---,0.00,VWS V14.01,2013-06-02 07:40:00,
2013-06-01 23:41:00,56.8,37.9,30.00,NW,313,4.0,4.0,49,0.00,,---,0.00,VWS V14.01,2013-06-02 07:41:00,
2013-06-01 23:42:00,56.7,37.8,30.00,NW,311,1.0,4.0,49,0.00,,---,0.00,VWS V14.01,2013-06-02 07:42:00,
2013-06-01 23:44:00,56.5,38.1,30.00,NW,309,3.0,5.0,50,0.00,,---,0.00,VWS V14.01,2013-06-02 07:44:00,
2013-06-01 23:46:00,56.3,37.9,30.00,NW,306,3.0,5.0,50,0.00,,---,0.00,VWS V14.01,2013-06-02 07:46:00,
2013-06-01 23:47:00,56.3,37.9,30.00,NW,315,4.0,4.0,50,0.00,,---,0.00,VWS V14.01,2013-06-02 07:47:00,
2013-06-01 23:49:00,56.1,37.7,30.00,WNW,302,1.0,4.0,50,0.00,,---,0.00,VWS V14.01,2013-06-02 07:49:00,
2013-06-01 23:51:00,56.0,37.6,30.00,NW,309,3.0,6.0,50,0.00,,---,0.00,VWS V14.01,2013-06-02 07:51:00,
2013-06-01 23:52:00,55.9,37.5,30.00,NW,319,3.0,3.0,50,0.00,,---,0.00,VWS V14.01,2013-06-02 07:52:00,
2013-06-01 23:54:00,55.7,37.9,30.00,NW,311,2.0,4.0,51,0.00,,---,0.00,VWS V14.01,2013-06-02 07:54:00,
2013-06-01 23:56:00,55.6,37.3,30.00,North,5,4.0,4.0,50,0.00,,---,0.00,VWS V14.01,2013-06-02 07:56:00,
2013-06-01 23:57:00,55.5,37.7,30.00,NNE,20,4.0,5.0,51,0.00,,---,0.00,VWS V14.01,2013-06-02 07:57:00,